Time,TemperatureF,DewpointF,PressureIn,WindDirection,WindDirectionDegrees,WindSpeedMPH,WindSpeedGustMPH,Humidity,HourlyPrecipIn,Conditions,Clouds,dailyrainin,SoftwareType,DateUTC
2013-01-07 00:00:00,16.3,6.0,29.76,South,180,8.1,8.1,63,0.00,,,0.00,VWS V14.01,2013-01-07 06:00:00,
2013-01-07 00:01:00,16.3,5.6,29.74,SSW,202,11.4,11.4,62,0.00,,,0.00,VWS V14.01,2013-01-07 06:01:00,
2013-01-07 00:02:00,16.3,6.0,29.76,SSW,202,16.8,16.8,63,0.00,,,0.00,VWS V14.01,2013-01-07 06:02:00,
2013-01-07 00:04:00,16.3,6.0,29.76,SE,135,14.1,14.1,63,0.00,,,0.00,VWS V14.01,2013-01-07 06:04:00,
2013-01-07 00:06:00,16.3,5.6,29.74,SSW,202,11.4,11.4,62,0.00,,,0.00,VWS V14.01,2013-01-07 06:06:00,
2013-01-07 00:08:00,16.3,5.6,29.74,SSW,202,11.4,11.4,62,0.00,,,0.00,VWS V14.01,2013-01-07 06:08:00,
2013-01-07 00:10:00,16.3,5.6,29.74,SSW,202,11.4,11.4,62,0.00,,,0.00,VWS V14.01,2013-01-07 06:10:00,
2013-01-07 00:11:00,16.5,5.8,29.74,SSW,202,11.4,11.4,62,0.00,,,0.00,VWS V14.01,2013-01-07 06:11:00,
2013-01-07 00:12:00,16.3,5.6,29.74,SSW,202,11.4,11.4,62,0.00,,,0.00,VWS V14.01,2013-01-07 06:12:00,
2013-01-07 00:14:00,16.3,5.6,29.74,SSW,202,16.1,16.1,62,0.00,,,0.00,VWS V14.01,2013-01-07 06:14:00,
2013-01-07 00:16:00,16.7,6.0,29.71,South,180,16.1,16.1,62,0.00,,,0.00,VWS V14.01,2013-01-07 06:16:00,
2013-01-07 00:18:00,16.5,5.8,29.74,SSW,202,11.4,11.4,62,0.00,,,0.00,VWS V14.01,2013-01-07 06:18:00,
2013-01-07 00:20:00,16.5,5.8,29.71,SSE,158,9.4,9.4,62,0.00,,,0.00,VWS V14.01,2013-01-07 06:20:00,
2013-01-07 00:21:00,16.7,6.0,29.71,SSE,158,12.1,12.1,62,0.00,,,0.00,VWS V14.01,2013-01-07 06:21:00,
2013-01-07 00:22:00,16.7,6.0,29.71,SSE,158,9.4,9.4,62,0.00,,,0.00,VWS V14.01,2013-01-07 06:22:00,
2013-01-07 00:24:00,16.7,6.0,29.71,South,180,11.4,11.4,62,0.00,,,0.00,VWS V14.01,2013-01-07 06:24:00,
2013-01-07 00:26:00,16.7,6.0,29.71,SSW,202,18.8,18.8,62,0.00,,,0.00,VWS V14.01,2013-01-07 06:26:00,
2013-01-07 00:28:00,16.7,6.0,29.71,SSE,158,12.1,12.1,62,0.00,,,0.00,VWS V14.01,2013-01-07 06:28:00,
2013-01-07 00:30:00,16.7,6.0,29.71,SSW,202,18.8,18.8,62,0.00,,,0.00,VWS V14.01,2013-01-07 06:30:00,
2013-01-07 00:31:00,16.7,6.0,29.71,SE,135,7.4,7.4,62,0.00,,,0.00,VWS V14.01,2013-01-07 06:31:00,
2013-01-07 00:32:00,16.7,6.0,29.71,SSW,202,18.8,18.8,62,0.00,,,0.00,VWS V14.01,2013-01-07 06:32:00,
2013-01-07 00:34:00,16.7,6.0,29.71,SSW,202,18.8,18.8,62,0.00,,,0.00,VWS V14.01,2013-01-07 06:34:00,
2013-01-07 00:36:00,16.5,5.4,29.71,SSW,202,6.0,6.0,61,0.00,,,0.00,VWS V14.01,2013-01-07 06:36:00,
2013-01-07 00:38:00,16.7,6.0,29.71,SE,135,7.4,7.4,62,0.00,,,0.00,VWS V14.01,2013-01-07 06:38:00,
2013-01-07 00:40:00,16.7,6.0,29.71,SE,135,7.4,7.4,62,0.00,,,0.00,VWS V14.01,2013-01-07 06:40:00,
2013-01-07 00:41:00,16.5,5.8,29.71,SSW,202,6.0,6.0,62,0.00,,,0.00,VWS V14.01,2013-01-07 06:41:00,
2013-01-07 00:42:00,16.7,5.6,29.71,South,180,6.7,6.7,61,0.00,,,0.00,VWS V14.01,2013-01-07 06:42:00,
2013-01-07 00:44:00,16.5,5.4,29.71,SSW,202,6.0,6.0,61,0.00,,,0.00,VWS V14.01,2013-01-07 06:44:00,
2013-01-07 00:46:00,16.7,6.0,29.71,SSW,202,12.1,12.1,62,0.00,,,0.00,VWS V14.01,2013-01-07 06:46:00,
2013-01-07 00:48:00,16.5,5.8,29.71,SSW,202,6.0,6.0,62,0.00,,,0.00,VWS V14.01,2013-01-07 06:48:00,
2013-01-07 00:50:00,16.5,5.8,29.71,SSW,202,6.0,6.0,62,0.00,,,0.00,VWS V14.01,2013-01-07 06:50:00,
2013-01-07 00:51:00,16.7,6.0,29.71,SSW,202,9.4,9.4,62,0.00,,,0.00,VWS V14.01,2013-01-07 06:51:00,
2013-01-07 00:52:00,16.5,5.8,29.71,SSW,202,12.1,12.1,62,0.00,,,0.00,VWS V14.01,2013-01-07 06:52:00,
2013-01-07 00:54:00,16.7,6.0,29.71,SSW,202,8.1,8.1,62,0.00,,,0.00,VWS V14.01,2013-01-07 06:54:00,
2013-01-07 00:56:00,16.5,5.8,29.71,SSW,202,7.4,7.4,62,0.00,,,0.00,VWS V14.01,2013-01-07 06:56:00,
2013-01-07 00:58:00,16.7,6.0,29.71,SSW,202,9.4,9.4,62,0.00,,,0.00,VWS V14.01,2013-01-07 06:58:00,
2013-01-07 01:00:00,16.7,6.0,29.71,South,180,6.0,6.0,62,0.00,,,0.00,VWS V14.01,2013-01-07 07:00:00,
2013-01-07 01:01:00,16.9,6.5,29.71,SSW,202,10.7,10.7,63,0.00,,,0.00,VWS V14.01,2013-01-07 07:01:00,
2013-01-07 01:02:00,16.7,6.0,29.71,South,180,6.0,6.0,62,0.00,,,0.00,VWS V14.01,2013-01-07 07:02:00,
2013-01-07 01:04:00,16.7,6.0,29.71,SSW,202,7.4,7.4,62,0.00,,,0.00,VWS V14.01,2013-01-07 07:04:00,
2013-01-07 01:06:00,17.1,6.7,29.71,South,180,8.1,8.1,63,0.00,,,0.00,VWS V14.01,2013-01-07 07:06:00,
2013-01-07 01:08:00,16.9,6.5,29.71,South,180,8.1,8.1,63,0.00,,,0.00,VWS V14.01,2013-01-07 07:08:00,
2013-01-07 01:10:00,16.9,6.5,29.71,South,180,8.1,8.1,63,0.00,,,0.00,VWS V14.01,2013-01-07 07:10:00,
2013-01-07 01:11:00,17.2,6.8,29.71,South,180,11.4,11.4,63,0.00,,,0.00,VWS V14.01,2013-01-07 07:11:00,
2013-01-07 01:12:00,17.1,6.7,29.71,South,180,8.1,8.1,63,0.00,,,0.00,VWS V14.01,2013-01-07 07:12:00,
2013-01-07 01:14:00,17.1,6.7,29.71,South,180,8.1,8.1,63,0.00,,,0.00,VWS V14.01,2013-01-07 07:14:00,
2013-01-07 01:16:00,17.2,6.8,29.71,SSE,158,8.7,8.7,63,0.00,,,0.00,VWS V14.01,2013-01-07 07:16:00,
2013-01-07 01:18:00,17.2,6.8,29.71,South,180,11.4,11.4,63,0.00,,,0.00,VWS V14.01,2013-01-07 07:18:00,
2013-01-07 01:20:00,17.2,6.8,29.71,South,180,11.4,11.4,63,0.00,,,0.00,VWS V14.01,2013-01-07 07:20:00,
2013-01-07 01:21:00,17.2,6.8,29.71,SSW,202,7.4,7.4,63,0.00,,,0.00,VWS V14.01,2013-01-07 07:21:00,
2013-01-07 01:22:00,17.2,6.8,29.71,SSE,158,8.7,8.7,63,0.00,,,0.00,VWS V14.01,2013-01-07 07:22:00,
2013-01-07 01:24:00,17.2,6.8,29.71,SSE,158,8.7,8.7,63,0.00,,,0.00,VWS V14.01,2013-01-07 07:24:00,
2013-01-07 01:26:00,17.1,6.3,29.71,SSE,158,6.7,6.7,62,0.00,,,0.00,VWS V14.01,2013-01-07 07:26:00,
2013-01-07 01:28:00,17.2,6.8,29.71,SW,225,8.7,8.7,63,0.00,,,0.00,VWS V14.01,2013-01-07 07:28:00,
2013-01-07 01:30:00,17.2,6.5,29.71,South,180,8.1,8.1,62,0.00,,,0.00,VWS V14.01,2013-01-07 07:30:00,
2013-01-07 01:31:00,17.1,6.7,29.71,SSW,202,10.1,10.1,63,0.00,,,0.00,VWS V14.01,2013-01-07 07:31:00,
2013-01-07 01:32:00,17.2,6.5,29.71,SSE,158,8.7,8.7,62,0.00,,,0.00,VWS V14.01,2013-01-07 07:32:00,
2013-01-07 01:34:00,17.1,6.3,29.71,SSE,158,6.7,6.7,62,0.00,,,0.00,VWS V14.01,2013-01-07 07:34:00,
2013-01-07 01:36:00,17.1,6.3,29.71,SW,225,7.4,7.4,62,0.00,,,0.00,VWS V14.01,2013-01-07 07:36:00,
2013-01-07 01:38:00,17.2,6.8,29.71,SSW,202,10.1,10.1,63,0.00,,,0.00,VWS V14.01,2013-01-07 07:38:00,
2013-01-07 01:40:00,17.2,6.8,29.71,South,180,9.4,9.4,63,0.00,,,0.00,VWS V14.01,2013-01-07 07:40:00,
2013-01-07 01:41:00,17.1,6.7,29.71,SSE,158,4.0,4.0,63,0.00,,,0.00,VWS V14.01,2013-01-07 07:41:00,
2013-01-07 01:42:00,17.1,6.7,29.71,SSE,158,7.4,7.4,63,0.00,,,0.00,VWS V14.01,2013-01-07 07:42:00,
2013-01-07 01:44:00,17.1,6.7,29.71,SW,225,7.4,7.4,63,0.00,,,0.00,VWS V14.01,2013-01-07 07:44:00,
2013-01-07 01:46:00,16.9,6.1,29.68,South,180,12.8,12.8,62,0.00,,,0.00,VWS V14.01,2013-01-07 07:46:00,
2013-01-07 01:48:00,17.1,6.7,29.71,South,180,6.7,6.7,63,0.00,,,0.00,VWS V14.01,2013-01-07 07:48:00,
2013-01-07 01:50:00,17.1,6.3,29.68,South,180,9.4,9.4,62,0.00,,,0.00,VWS V14.01,2013-01-07 07:50:00,
2013-01-07 01:51:00,16.9,6.5,29.68,SSE,158,14.8,14.8,63,0.00,,,0.00,VWS V14.01,2013-01-07 07:51:00,
2013-01-07 01:52:00,16.9,6.1,29.68,SSE,158,8.7,8.7,62,0.00,,,0.00,VWS V14.01,2013-01-07 07:52:00,
2013-01-07 01:54:00,16.9,6.5,29.68,South,180,8.7,8.7,63,0.00,,,0.00,VWS V14.01,2013-01-07 07:54:00,
2013-01-07 01:56:00,17.1,6.7,29.68,SSE,158,14.8,14.8,63,0.00,,,0.00,VWS V14.01,2013-01-07 07:56:00,
2013-01-07 01:58:00,16.9,6.5,29.68,SSE,158,14.8,14.8,63,0.00,,,0.00,VWS V14.01,2013-01-07 07:58:00,
2013-01-07 02:00:00,17.1,6.7,29.68,SSE,158,8.1,8.1,63,0.00,,,0.00,VWS V14.01,2013-01-07 08:00:00,
2013-01-07 02:02:00,17.1,6.7,29.68,SSE,158,14.8,14.8,63,0.00,,,0.00,VWS V14.01,2013-01-07 08:02:00,
2013-01-07 02:04:00,17.1,6.7,29.68,SSE,158,14.8,14.8,63,0.00,,,0.00,VWS V14.01,2013-01-07 08:04:00,
2013-01-07 02:05:00,16.9,6.5,29.68,SSE,158,8.1,8.1,63,0.00,,,0.00,VWS V14.01,2013-01-07 08:05:00,
2013-01-07 02:06:00,17.1,6.7,29.68,SSE,158,14.8,14.8,63,0.00,,,0.00,VWS V14.01,2013-01-07 08:06:00,
2013-01-07 02:08:00,17.1,6.7,29.68,SSE,158,8.1,8.1,63,0.00,,,0.00,VWS V14.01,2013-01-07 08:08:00,
2013-01-07 02:10:00,16.9,6.8,29.68,SSE,158,8.1,8.1,64,0.00,,,0.00,VWS V14.01,2013-01-07 08:10:00,
2013-01-07 02:12:00,16.9,6.5,29.68,SSE,158,8.1,8.1,63,0.00,,,0.00,VWS V14.01,2013-01-07 08:12:00,
2013-01-07 02:14:00,16.9,6.5,29.68,SSE,158,8.1,8.1,63,0.00,,,0.00,VWS V14.01,2013-01-07 08:14:00,
2013-01-07 02:15:00,16.7,6.3,29.68,SSE,158,8.1,8.1,63,0.00,,,0.00,VWS V14.01,2013-01-07 08:15:00,
2013-01-07 02:16:00,16.9,6.8,29.68,SSE,158,8.1,8.1,64,0.00,,,0.00,VWS V14.01,2013-01-07 08:16:00,
2013-01-07 02:18:00,16.9,6.8,29.68,SSE,158,8.1,8.1,64,0.00,,,0.00,VWS V14.01,2013-01-07 08:18:00,
2013-01-07 02:20:00,16.9,6.8,29.68,South,180,8.1,8.1,64,0.00,,,0.00,VWS V14.01,2013-01-07 08:20:00,
2013-01-07 02:22:00,16.7,6.3,29.68,SSE,158,8.1,8.1,63,0.00,,,0.00,VWS V14.01,2013-01-07 08:22:00,
2013-01-07 02:24:00,16.7,6.3,29.68,SSE,158,8.1,8.1,63,0.00,,,0.00,VWS V14.01,2013-01-07 08:24:00,
2013-01-07 02:25:00,16.9,6.8,29.68,SSW,202,8.1,8.1,64,0.00,,,0.00,VWS V14.01,2013-01-07 08:25:00,
2013-01-07 02:26:00,16.7,6.3,29.68,South,180,8.1,8.1,63,0.00,,,0.00,VWS V14.01,2013-01-07 08:26:00,
2013-01-07 02:28:00,16.9,6.8,29.68,SSW,202,8.1,8.1,64,0.00,,,0.00,VWS V14.01,2013-01-07 08:28:00,
2013-01-07 02:30:00,16.9,6.8,29.68,SSW,202,10.1,10.1,64,0.00,,,0.00,VWS V14.01,2013-01-07 08:30:00,
2013-01-07 02:32:00,16.9,6.8,29.68,SSW,202,9.4,9.4,64,0.00,,,0.00,VWS V14.01,2013-01-07 08:32:00,
2013-01-07 02:34:00,16.9,6.8,29.68,SW,225,2.7,2.7,64,0.00,,,0.00,VWS V14.01,2013-01-07 08:34:00,
2013-01-07 02:35:00,17.1,7.3,29.68,SSW,202,12.8,12.8,65,0.00,,,0.00,VWS V14.01,2013-01-07 08:35:00,
2013-01-07 02:36:00,16.9,6.8,29.68,SSW,202,8.7,8.7,64,0.00,,,0.00,VWS V14.01,2013-01-07 08:36:00,
2013-01-07 02:38:00,16.9,6.8,29.68,South,180,10.7,10.7,64,0.00,,,0.00,VWS V14.01,2013-01-07 08:38:00,
2013-01-07 02:40:00,18.0,8.5,29.68,SSE,158,9.4,9.4,66,0.00,,,0.00,VWS V14.01,2013-01-07 08:40:00,
2013-01-07 02:42:00,17.1,7.0,29.68,SSW,202,17.5,17.5,64,0.00,,,0.00,VWS V14.01,2013-01-07 08:42:00,
2013-01-07 02:44:00,17.2,7.5,29.68,SSW,202,14.1,14.1,65,0.00,,,0.00,VWS V14.01,2013-01-07 08:44:00,
2013-01-07 02:45:00,19.2,9.7,29.65,SSW,202,11.4,11.4,66,0.00,,,0.00,VWS V14.01,2013-01-07 08:45:00,
2013-01-07 02:46:00,17.8,8.0,29.68,SSW,202,18.8,18.8,65,0.00,,,0.00,VWS V14.01,2013-01-07 08:46:00,
2013-01-07 02:48:00,18.1,8.7,29.68,SSW,202,11.4,11.4,66,0.00,,,0.00,VWS V14.01,2013-01-07 08:48:00,
2013-01-07 02:50:00,20.5,10.2,29.65,SSW,202,10.7,10.7,64,0.00,,,0.00,VWS V14.01,2013-01-07 08:50:00,
2013-01-07 02:52:00,19.0,9.6,29.65,SSW,202,17.5,17.5,66,0.00,,,0.00,VWS V14.01,2013-01-07 08:52:00,
2013-01-07 02:54:00,19.8,9.9,29.65,SSW,202,22.8,22.8,65,0.00,,,0.00,VWS V14.01,2013-01-07 08:54:00,
2013-01-07 02:55:00,21.6,10.2,29.65,WSW,248,16.8,16.8,61,0.00,,,0.00,VWS V14.01,2013-01-07 08:55:00,
2013-01-07 02:56:00,20.3,10.4,29.65,SW,225,18.1,18.1,65,0.00,,,0.00,VWS V14.01,2013-01-07 08:56:00,
2013-01-07 02:58:00,20.5,10.2,29.65,South,180,16.8,16.8,64,0.00,,,0.00,VWS V14.01,2013-01-07 08:58:00,
2013-01-07 03:00:00,22.6,10.1,29.65,SSW,202,12.1,12.1,58,0.00,,,0.00,VWS V14.01,2013-01-07 09:00:00,
2013-01-07 03:02:00,21.6,10.2,29.65,SSW,202,16.1,16.1,61,0.00,,,0.00,VWS V14.01,2013-01-07 09:02:00,
2013-01-07 03:04:00,21.9,9.8,29.65,SSW,202,10.7,10.7,59,0.00,,,0.00,VWS V14.01,2013-01-07 09:04:00,
2013-01-07 03:05:00,23.4,9.6,29.65,WSW,248,16.1,16.1,55,0.00,,,0.00,VWS V14.01,2013-01-07 09:05:00,
2013-01-07 03:06:00,22.3,10.1,29.65,NW,315,29.5,29.5,59,0.00,,,0.00,VWS V14.01,2013-01-07 09:06:00,
2013-01-07 03:08:00,22.6,9.7,29.65,South,180,30.9,30.9,57,0.00,,,0.00,VWS V14.01,2013-01-07 09:08:00,
2013-01-07 03:10:00,23.7,9.5,29.65,SSW,202,10.7,10.7,54,0.00,,,0.00,VWS V14.01,2013-01-07 09:10:00,
2013-01-07 03:12:00,23.2,9.4,29.65,South,180,18.8,18.8,55,0.00,,,0.00,VWS V14.01,2013-01-07 09:12:00,
2013-01-07 03:14:00,23.5,9.4,29.65,South,180,16.8,16.8,54,0.00,,,0.00,VWS V14.01,2013-01-07 09:14:00,
2013-01-07 03:15:00,24.3,9.2,29.65,SSW,202,8.1,10.5,52,0.00,,,0.00,VWS V14.01,2013-01-07 09:15:00,
2013-01-07 03:16:00,23.5,9.4,29.65,SSW,202,22.8,22.8,54,0.00,,,0.00,VWS V14.01,2013-01-07 09:16:00,
2013-01-07 03:18:00,23.7,9.1,29.65,SSW,202,22.8,22.8,53,0.00,,,0.00,VWS V14.01,2013-01-07 09:18:00,
2013-01-07 03:20:00,24.3,9.2,29.65,SSW,202,18.8,18.8,52,0.00,,,0.00,VWS V14.01,2013-01-07 09:20:00,
2013-01-07 03:22:00,24.3,9.6,29.65,SW,225,30.9,30.9,53,0.00,,,0.00,VWS V14.01,2013-01-07 09:22:00,
2013-01-07 03:24:00,24.4,9.4,29.65,WSW,248,16.1,16.1,52,0.00,,,0.00,VWS V14.01,2013-01-07 09:24:00,
2013-01-07 03:25:00,24.4,9.4,29.65,SSE,158,18.1,18.1,52,0.00,,,0.00,VWS V14.01,2013-01-07 09:25:00,
2013-01-07 03:26:00,24.4,9.4,29.65,SW,225,9.4,10.7,52,0.00,,,0.00,VWS V14.01,2013-01-07 09:26:00,
2013-01-07 03:28:00,24.3,9.2,29.65,SSW,202,26.2,26.2,52,0.00,,,0.00,VWS V14.01,2013-01-07 09:28:00,
2013-01-07 03:30:00,24.4,9.4,29.65,SW,225,18.1,18.1,52,0.00,,,0.00,VWS V14.01,2013-01-07 09:30:00,
2013-01-07 03:32:00,24.4,9.4,29.65,SW,225,16.1,16.1,52,0.00,,,0.00,VWS V14.01,2013-01-07 09:32:00,
2013-01-07 03:34:00,24.4,9.4,29.65,SSW,202,19.5,19.5,52,0.00,,,0.00,VWS V14.01,2013-01-07 09:34:00,
2013-01-07 03:35:00,24.4,8.9,29.65,WSW,248,19.5,19.5,51,0.00,,,0.00,VWS V14.01,2013-01-07 09:35:00,
2013-01-07 03:36:00,24.4,9.4,29.65,SSW,202,12.8,12.8,52,0.00,,,0.00,VWS V14.01,2013-01-07 09:36:00,
2013-01-07 03:38:00,24.4,9.4,29.65,NW,315,17.5,17.5,52,0.00,,,0.00,VWS V14.01,2013-01-07 09:38:00,
2013-01-07 03:40:00,24.4,8.9,29.65,SSW,202,25.5,25.5,51,0.00,,,0.00,VWS V14.01,2013-01-07 09:40:00,
2013-01-07 03:42:00,24.4,8.9,29.65,SSW,202,18.8,18.8,51,0.00,,,0.00,VWS V14.01,2013-01-07 09:42:00,
2013-01-07 03:44:00,24.4,8.9,29.65,WSW,248,23.5,23.5,51,0.00,,,0.00,VWS V14.01,2013-01-07 09:44:00,
2013-01-07 03:45:00,24.4,8.9,29.65,South,180,17.5,17.5,51,0.00,,,0.00,VWS V14.01,2013-01-07 09:45:00,
2013-01-07 03:46:00,24.4,8.9,29.65,SSW,202,14.1,14.1,51,0.00,,,0.00,VWS V14.01,2013-01-07 09:46:00,
2013-01-07 03:48:00,24.4,8.9,29.65,South,180,8.7,10.3,51,0.00,,,0.00,VWS V14.01,2013-01-07 09:48:00,
2013-01-07 03:50:00,24.4,8.9,29.65,SSW,202,23.5,23.5,51,0.00,,,0.00,VWS V14.01,2013-01-07 09:50:00,
2013-01-07 03:52:00,24.4,8.9,29.65,West,270,10.1,10.1,51,0.00,,,0.00,VWS V14.01,2013-01-07 09:52:00,
2013-01-07 03:54:00,24.4,8.9,29.65,South,180,18.8,18.8,51,0.00,,,0.00,VWS V14.01,2013-01-07 09:54:00,
2013-01-07 03:55:00,24.4,9.4,29.65,South,180,24.2,24.2,52,0.00,,,0.00,VWS V14.01,2013-01-07 09:55:00,
2013-01-07 03:56:00,24.4,8.9,29.65,WSW,248,23.5,23.5,51,0.00,,,0.00,VWS V14.01,2013-01-07 09:56:00,
2013-01-07 03:58:00,24.4,8.9,29.65,South,180,14.8,14.8,51,0.00,,,0.00,VWS V14.01,2013-01-07 09:58:00,
2013-01-07 04:00:00,24.4,9.4,29.65,SSW,202,8.7,8.7,52,0.00,,,0.00,VWS V14.01,2013-01-07 10:00:00,
2013-01-07 04:02:00,24.4,9.4,29.65,South,180,11.4,11.4,52,0.00,,,0.00,VWS V14.01,2013-01-07 10:02:00,
2013-01-07 04:04:00,24.4,9.4,29.65,South,180,18.1,18.1,52,0.00,,,0.00,VWS V14.01,2013-01-07 10:04:00,
2013-01-07 04:05:00,24.4,9.4,29.65,WSW,248,18.1,18.1,52,0.00,,,0.00,VWS V14.01,2013-01-07 10:05:00,
2013-01-07 04:06:00,24.4,9.4,29.65,WNW,292,16.8,16.8,52,0.00,,,0.00,VWS V14.01,2013-01-07 10:06:00,
2013-01-07 04:08:00,24.4,9.4,29.65,SSW,202,12.1,12.1,52,0.00,,,0.00,VWS V14.01,2013-01-07 10:08:00,
2013-01-07 04:10:00,24.4,9.4,29.65,SW,225,12.8,12.8,52,0.00,,,0.00,VWS V14.01,2013-01-07 10:10:00,
2013-01-07 04:12:00,24.4,9.4,29.65,SSW,202,12.1,12.1,52,0.00,,,0.00,VWS V14.01,2013-01-07 10:12:00,
2013-01-07 04:14:00,24.4,9.4,29.65,SSE,158,12.8,12.8,52,0.00,,,0.00,VWS V14.01,2013-01-07 10:14:00,
2013-01-07 04:15:00,24.4,9.4,29.65,SSW,202,11.4,11.4,52,0.00,,,0.00,VWS V14.01,2013-01-07 10:15:00,
2013-01-07 04:16:00,24.4,9.4,29.65,SSW,202,16.1,16.1,52,0.00,,,0.00,VWS V14.01,2013-01-07 10:16:00,
2013-01-07 04:18:00,24.4,9.4,29.65,SSW,202,12.1,12.1,52,0.00,,,0.00,VWS V14.01,2013-01-07 10:18:00,
2013-01-07 04:20:00,24.8,9.7,29.65,SSE,158,14.8,14.8,52,0.00,,,0.00,VWS V14.01,2013-01-07 10:20:00,
2013-01-07 04:22:00,24.4,9.4,29.65,SW,225,10.7,10.7,52,0.00,,,0.00,VWS V14.01,2013-01-07 10:22:00,
2013-01-07 04:24:00,24.6,9.5,29.65,SSW,202,14.8,14.8,52,0.00,,,0.00,VWS V14.01,2013-01-07 10:24:00,
2013-01-07 04:25:00,25.0,9.9,29.65,SW,225,16.1,16.1,52,0.00,,,0.00,VWS V14.01,2013-01-07 10:25:00,
2013-01-07 04:26:00,24.6,9.5,29.65,SSW,202,18.8,18.8,52,0.00,,,0.00,VWS V14.01,2013-01-07 10:26:00,
2013-01-07 04:28:00,24.8,9.7,29.65,SSW,202,10.7,10.7,52,0.00,,,0.00,VWS V14.01,2013-01-07 10:28:00,
2013-01-07 04:30:00,25.0,9.9,29.65,SSW,202,8.7,8.7,52,0.00,,,0.00,VWS V14.01,2013-01-07 10:30:00,
2013-01-07 04:32:00,25.0,9.9,29.65,WSW,248,29.5,29.5,52,0.00,,,0.00,VWS V14.01,2013-01-07 10:32:00,
2013-01-07 04:34:00,25.0,9.9,29.65,West,270,12.8,12.8,52,0.00,,,0.00,VWS V14.01,2013-01-07 10:34:00,
2013-01-07 04:35:00,25.3,10.2,29.65,SSW,202,19.5,19.5,52,0.00,,,0.00,VWS V14.01,2013-01-07 10:35:00,
2013-01-07 04:36:00,25.0,9.9,29.65,SSW,202,14.8,14.8,52,0.00,,,0.00,VWS V14.01,2013-01-07 10:36:00,
2013-01-07 04:38:00,25.0,9.9,29.65,SSW,202,18.1,18.1,52,0.00,,,0.00,VWS V14.01,2013-01-07 10:38:00,
2013-01-07 04:40:00,25.3,10.2,29.65,SW,225,9.4,9.4,52,0.00,,,0.00,VWS V14.01,2013-01-07 10:40:00,
2013-01-07 04:42:00,25.3,10.2,29.65,West,270,18.1,18.1,52,0.00,,,0.00,VWS V14.01,2013-01-07 10:42:00,
2013-01-07 04:44:00,25.3,10.2,29.65,WSW,248,10.7,10.7,52,0.00,,,0.00,VWS V14.01,2013-01-07 10:44:00,
2013-01-07 04:45:00,25.3,10.2,29.65,WSW,248,17.5,17.5,52,0.00,,,0.00,VWS V14.01,2013-01-07 10:45:00,
2013-01-07 04:46:00,25.3,10.2,29.65,WSW,248,10.1,10.1,52,0.00,,,0.00,VWS V14.01,2013-01-07 10:46:00,
2013-01-07 04:48:00,25.3,10.2,29.65,SSW,202,10.7,10.7,52,0.00,,,0.00,VWS V14.01,2013-01-07 10:48:00,
2013-01-07 04:50:00,25.5,10.4,29.65,SSW,202,18.1,18.1,52,0.00,,,0.00,VWS V14.01,2013-01-07 10:50:00,
2013-01-07 04:52:00,25.3,10.2,29.65,SSW,202,22.2,22.2,52,0.00,,,0.00,VWS V14.01,2013-01-07 10:52:00,
2013-01-07 04:54:00,25.3,10.2,29.65,South,180,14.8,14.8,52,0.00,,,0.00,VWS V14.01,2013-01-07 10:54:00,
2013-01-07 04:55:00,25.5,10.4,29.65,SW,225,17.5,17.5,52,0.00,,,0.00,VWS V14.01,2013-01-07 10:55:00,
2013-01-07 04:56:00,25.5,10.4,29.65,SSW,202,22.8,22.8,52,0.00,,,0.00,VWS V14.01,2013-01-07 10:56:00,
2013-01-07 04:58:00,25.5,10.4,29.65,SW,225,10.7,10.7,52,0.00,,,0.00,VWS V14.01,2013-01-07 10:58:00,
2013-01-07 05:00:00,25.9,10.7,29.65,South,180,10.7,10.7,52,0.00,,,0.00,VWS V14.01,2013-01-07 11:00:00,
2013-01-07 05:02:00,25.7,10.5,29.65,SSW,202,10.7,10.7,52,0.00,,,0.00,VWS V14.01,2013-01-07 11:02:00,
2013-01-07 05:04:00,25.7,10.5,29.65,SSW,202,14.8,14.8,52,0.00,,,0.00,VWS V14.01,2013-01-07 11:04:00,
2013-01-07 05:05:00,25.9,10.7,29.65,WSW,248,9.4,9.4,52,0.00,,,0.00,VWS V14.01,2013-01-07 11:05:00,
2013-01-07 05:06:00,25.9,10.7,29.65,SSW,202,18.8,18.8,52,0.00,,,0.00,VWS V14.01,2013-01-07 11:06:00,
2013-01-07 05:08:00,25.9,10.7,29.65,SSW,202,11.4,11.4,52,0.00,,,0.00,VWS V14.01,2013-01-07 11:08:00,
2013-01-07 05:10:00,25.9,10.3,29.65,SSE,158,16.8,16.8,51,0.00,,,0.00,VWS V14.01,2013-01-07 11:10:00,
2013-01-07 05:12:00,25.9,10.7,29.65,SSW,202,12.8,12.8,52,0.00,,,0.00,VWS V14.01,2013-01-07 11:12:00,
2013-01-07 05:14:00,25.9,10.7,29.65,SSW,202,22.8,22.8,52,0.00,,,0.00,VWS V14.01,2013-01-07 11:14:00,
2013-01-07 05:15:00,25.7,10.5,29.65,South,180,19.5,19.5,52,0.00,,,0.00,VWS V14.01,2013-01-07 11:15:00,
2013-01-07 05:16:00,25.9,10.7,29.65,SSW,202,10.1,10.1,52,0.00,,,0.00,VWS V14.01,2013-01-07 11:16:00,
2013-01-07 05:18:00,25.7,10.5,29.65,WSW,248,12.1,12.1,52,0.00,,,0.00,VWS V14.01,2013-01-07 11:18:00,
2013-01-07 05:20:00,25.5,10.4,29.65,SSW,202,18.8,18.8,52,0.00,,,0.00,VWS V14.01,2013-01-07 11:20:00,
2013-01-07 05:22:00,25.7,10.5,29.65,SW,225,16.8,16.8,52,0.00,,,0.00,VWS V14.01,2013-01-07 11:22:00,
2013-01-07 05:24:00,25.7,10.5,29.65,WSW,248,9.4,9.4,52,0.00,,,0.00,VWS V14.01,2013-01-07 11:24:00,
2013-01-07 05:25:00,25.5,10.4,29.65,WSW,248,8.7,8.7,52,0.00,,,0.00,VWS V14.01,2013-01-07 11:25:00,
2013-01-07 05:26:00,25.5,10.4,29.65,SSE,158,14.8,14.8,52,0.00,,,0.00,VWS V14.01,2013-01-07 11:26:00,
2013-01-07 05:28:00,25.5,10.4,29.65,South,180,14.1,14.1,52,0.00,,,0.00,VWS V14.01,2013-01-07 11:28:00,
2013-01-07 05:30:00,25.3,10.2,29.65,SSW,202,24.2,24.2,52,0.00,,,0.00,VWS V14.01,2013-01-07 11:30:00,
2013-01-07 05:32:00,25.5,10.4,29.65,SSW,202,17.5,17.5,52,0.00,,,0.00,VWS V14.01,2013-01-07 11:32:00,
2013-01-07 05:34:00,25.5,10.4,29.65,SSW,202,4.7,5.6,52,0.00,,,0.00,VWS V14.01,2013-01-07 11:34:00,
2013-01-07 05:35:00,25.3,10.2,29.65,SSW,202,19.5,19.5,52,0.00,,,0.00,VWS V14.01,2013-01-07 11:35:00,
2013-01-07 05:36:00,25.3,10.2,29.65,SSW,202,19.5,19.5,52,0.00,,,0.00,VWS V14.01,2013-01-07 11:36:00,
2013-01-07 05:38:00,25.3,10.2,29.65,SSE,158,8.7,8.7,52,0.00,,,0.00,VWS V14.01,2013-01-07 11:38:00,
2013-01-07 05:40:00,25.2,10.0,29.65,West,270,12.1,12.1,52,0.00,,,0.00,VWS V14.01,2013-01-07 11:40:00,
2013-01-07 05:42:00,25.3,10.2,29.65,South,180,10.7,10.7,52,0.00,,,0.00,VWS V14.01,2013-01-07 11:42:00,
2013-01-07 05:44:00,25.3,10.2,29.65,SW,225,9.4,9.4,52,0.00,,,0.00,VWS V14.01,2013-01-07 11:44:00,
2013-01-07 05:45:00,25.2,10.4,29.65,South,180,8.7,8.7,53,0.00,,,0.00,VWS V14.01,2013-01-07 11:45:00,
2013-01-07 05:46:00,25.2,10.0,29.65,WSW,248,11.4,11.4,52,0.00,,,0.00,VWS V14.01,2013-01-07 11:46:00,
2013-01-07 05:48:00,25.2,10.0,29.65,SSW,202,12.1,12.1,52,0.00,,,0.00,VWS V14.01,2013-01-07 11:48:00,
2013-01-07 05:50:00,25.2,10.4,29.65,South,180,6.0,6.0,53,0.00,,,0.00,VWS V14.01,2013-01-07 11:50:00,
2013-01-07 05:52:00,25.2,10.4,29.65,WSW,248,10.1,10.1,53,0.00,,,0.00,VWS V14.01,2013-01-07 11:52:00,
2013-01-07 05:54:00,25.2,10.4,29.65,SSW,202,8.7,8.7,53,0.00,,,0.00,VWS V14.01,2013-01-07 11:54:00,
2013-01-07 05:55:00,25.2,10.4,29.65,SSW,202,14.8,14.8,53,0.00,,,0.00,VWS V14.01,2013-01-07 11:55:00,
2013-01-07 05:56:00,25.2,10.4,29.65,SSW,202,17.5,17.5,53,0.00,,,0.00,VWS V14.01,2013-01-07 11:56:00,
2013-01-07 05:58:00,25.2,10.4,29.65,SSE,158,24.2,24.2,53,0.00,,,0.00,VWS V14.01,2013-01-07 11:58:00,
2013-01-07 06:00:00,25.2,10.4,29.65,SSE,158,11.4,11.4,53,0.00,,,0.00,VWS V14.01,2013-01-07 12:00:00,
2013-01-07 06:02:00,25.2,10.4,29.65,SSW,202,10.7,10.7,53,0.00,,,0.00,VWS V14.01,2013-01-07 12:02:00,
2013-01-07 06:04:00,25.2,10.4,29.65,WSW,248,12.8,12.8,53,0.00,,,0.00,VWS V14.01,2013-01-07 12:04:00,
2013-01-07 06:05:00,25.0,10.3,29.65,SSW,202,8.7,8.7,53,0.00,,,0.00,VWS V14.01,2013-01-07 12:05:00,
2013-01-07 06:06:00,25.2,10.4,29.65,SSW,202,10.7,10.7,53,0.00,,,0.00,VWS V14.01,2013-01-07 12:06:00,
2013-01-07 06:08:00,25.2,10.4,29.65,South,180,12.8,12.8,53,0.00,,,0.00,VWS V14.01,2013-01-07 12:08:00,
2013-01-07 06:10:00,25.0,10.3,29.65,South,180,10.1,10.1,53,0.00,,,0.00,VWS V14.01,2013-01-07 12:10:00,
2013-01-07 06:12:00,25.0,10.3,29.65,SSE,158,8.7,8.7,53,0.00,,,0.00,VWS V14.01,2013-01-07 12:12:00,
2013-01-07 06:14:00,25.2,10.4,29.65,SW,225,16.8,16.8,53,0.00,,,0.00,VWS V14.01,2013-01-07 12:14:00,
2013-01-07 06:15:00,25.0,10.3,29.68,SSW,202,9.4,9.4,53,0.00,,,0.00,VWS V14.01,2013-01-07 12:15:00,
2013-01-07 06:16:00,25.0,10.3,29.65,SSW,202,11.4,11.4,53,0.00,,,0.00,VWS V14.01,2013-01-07 12:16:00,
2013-01-07 06:18:00,25.0,10.3,29.65,South,180,7.4,9.4,53,0.00,,,0.00,VWS V14.01,2013-01-07 12:18:00,
2013-01-07 06:20:00,24.6,10.4,29.68,SW,225,6.0,6.0,54,0.00,,,0.00,VWS V14.01,2013-01-07 12:20:00,
2013-01-07 06:22:00,25.0,10.3,29.68,WSW,248,8.1,8.1,53,0.00,,,0.00,VWS V14.01,2013-01-07 12:22:00,
2013-01-07 06:24:00,24.8,10.5,29.68,SSW,202,6.0,6.0,54,0.00,,,0.00,VWS V14.01,2013-01-07 12:24:00,
2013-01-07 06:25:00,24.4,10.2,29.68,West,270,11.4,11.4,54,0.00,,,0.00,VWS V14.01,2013-01-07 12:25:00,
2013-01-07 06:26:00,24.8,10.5,29.68,WSW,248,6.0,6.0,54,0.00,,,0.00,VWS V14.01,2013-01-07 12:26:00,
2013-01-07 06:28:00,24.6,10.4,29.68,SSW,202,7.4,7.4,54,0.00,,,0.00,VWS V14.01,2013-01-07 12:28:00,
2013-01-07 06:30:00,24.4,10.6,29.68,SSW,202,6.0,6.0,55,0.00,,,0.00,VWS V14.01,2013-01-07 12:30:00,
2013-01-07 06:32:00,24.4,10.2,29.68,West,270,11.4,11.4,54,0.00,,,0.00,VWS V14.01,2013-01-07 12:32:00,
2013-01-07 06:34:00,24.4,10.2,29.68,WSW,248,2.7,2.7,54,0.00,,,0.00,VWS V14.01,2013-01-07 12:34:00,
2013-01-07 06:35:00,24.1,10.3,29.68,West,270,7.4,7.4,55,0.00,,,0.00,VWS V14.01,2013-01-07 12:35:00,
2013-01-07 06:36:00,24.3,10.0,29.68,WSW,248,16.1,16.1,54,0.00,,,0.00,VWS V14.01,2013-01-07 12:36:00,
2013-01-07 06:38:00,24.3,10.4,29.68,SSW,202,9.4,9.4,55,0.00,,,0.00,VWS V14.01,2013-01-07 12:38:00,
2013-01-07 06:40:00,23.9,10.5,29.68,SSW,202,8.1,8.1,56,0.00,,,0.00,VWS V14.01,2013-01-07 12:40:00,
2013-01-07 06:42:00,24.1,10.3,29.68,WSW,248,8.7,8.7,55,0.00,,,0.00,VWS V14.01,2013-01-07 12:42:00,
2013-01-07 06:44:00,24.1,10.3,29.68,South,180,7.4,7.4,55,0.00,,,0.00,VWS V14.01,2013-01-07 12:44:00,
2013-01-07 06:45:00,23.9,10.5,29.68,SSW,202,8.7,8.7,56,0.00,,,0.00,VWS V14.01,2013-01-07 12:45:00,
2013-01-07 06:46:00,23.9,10.1,29.68,SSW,202,7.4,7.4,55,0.00,,,0.00,VWS V14.01,2013-01-07 12:46:00,
2013-01-07 06:48:00,23.9,10.5,29.68,SW,225,4.7,4.7,56,0.00,,,0.00,VWS V14.01,2013-01-07 12:48:00,
2013-01-07 06:50:00,23.9,10.5,29.68,SSE,158,8.1,8.1,56,0.00,,,0.00,VWS V14.01,2013-01-07 12:50:00,
2013-01-07 06:52:00,23.9,10.5,29.68,SSW,202,10.1,10.1,56,0.00,,,0.00,VWS V14.01,2013-01-07 12:52:00,
2013-01-07 06:54:00,23.9,10.5,29.68,South,180,10.1,10.1,56,0.00,,,0.00,VWS V14.01,2013-01-07 12:54:00,
2013-01-07 06:55:00,23.9,10.9,29.68,SSW,202,7.4,7.4,57,0.00,,,0.00,VWS V14.01,2013-01-07 12:55:00,
2013-01-07 06:56:00,23.9,10.5,29.68,SW,225,10.7,10.7,56,0.00,,,0.00,VWS V14.01,2013-01-07 12:56:00,
2013-01-07 06:58:00,23.9,10.9,29.68,SSW,202,11.4,11.4,57,0.00,,,0.00,VWS V14.01,2013-01-07 12:58:00,
2013-01-07 07:00:00,23.9,10.9,29.68,SSW,202,8.1,8.1,57,0.00,,,0.00,VWS V14.01,2013-01-07 13:00:00,
2013-01-07 07:02:00,23.9,10.9,29.68,South,180,8.1,8.1,57,0.00,,,0.00,VWS V14.01,2013-01-07 13:02:00,
2013-01-07 07:04:00,23.9,10.9,29.68,West,270,11.4,11.4,57,0.00,,,0.00,VWS V14.01,2013-01-07 13:04:00,
2013-01-07 07:05:00,23.7,10.7,29.68,SSE,158,8.1,8.1,57,0.00,,,0.00,VWS V14.01,2013-01-07 13:05:00,
2013-01-07 07:06:00,23.9,10.9,29.68,South,180,12.1,12.1,57,0.00,,,0.00,VWS V14.01,2013-01-07 13:06:00,
2013-01-07 07:08:00,23.7,10.7,29.68,SSW,202,8.1,8.1,57,0.00,,,0.00,VWS V14.01,2013-01-07 13:08:00,
2013-01-07 07:10:00,23.5,10.6,29.68,South,180,12.1,12.1,57,0.00,,,0.00,VWS V14.01,2013-01-07 13:10:00,
2013-01-07 07:12:00,23.7,10.7,29.68,SW,225,8.7,8.7,57,0.00,,,0.00,VWS V14.01,2013-01-07 13:12:00,
2013-01-07 07:14:00,23.5,10.6,29.68,SW,225,4.7,4.7,57,0.00,,,0.00,VWS V14.01,2013-01-07 13:14:00,
2013-01-07 07:15:00,23.5,10.9,29.65,SSW,202,4.0,4.0,58,0.00,,,0.00,VWS V14.01,2013-01-07 13:15:00,
2013-01-07 07:16:00,23.5,10.6,29.68,SW,225,4.0,4.0,57,0.00,,,0.00,VWS V14.01,2013-01-07 13:16:00,
2013-01-07 07:18:00,23.5,10.6,29.68,WSW,248,4.7,5.8,57,0.00,,,0.00,VWS V14.01,2013-01-07 13:18:00,
2013-01-07 07:20:00,23.7,11.1,29.65,SSW,202,11.4,11.4,58,0.00,,,0.00,VWS V14.01,2013-01-07 13:20:00,
2013-01-07 07:22:00,23.5,10.9,29.65,SSW,202,7.4,7.4,58,0.00,,,0.00,VWS V14.01,2013-01-07 13:22:00,
2013-01-07 07:24:00,23.5,10.9,29.65,South,180,8.1,8.1,58,0.00,,,0.00,VWS V14.01,2013-01-07 13:24:00,
2013-01-07 07:25:00,23.7,11.1,29.65,West,270,11.4,11.4,58,0.00,,,0.00,VWS V14.01,2013-01-07 13:25:00,
2013-01-07 07:26:00,23.5,10.9,29.65,SW,225,16.1,16.1,58,0.00,,,0.00,VWS V14.01,2013-01-07 13:26:00,
2013-01-07 07:28:00,23.7,11.1,29.65,WNW,292,16.8,16.8,58,0.00,,,0.00,VWS V14.01,2013-01-07 13:28:00,
2013-01-07 07:30:00,23.7,11.1,29.62,SSW,202,10.7,10.7,58,0.00,,,0.00,VWS V14.01,2013-01-07 13:30:00,
2013-01-07 07:32:00,23.7,11.1,29.65,WSW,248,2.7,4.7,58,0.00,,,0.00,VWS V14.01,2013-01-07 13:32:00,
2013-01-07 07:34:00,23.7,11.1,29.65,SSW,202,8.1,8.1,58,0.00,,,0.00,VWS V14.01,2013-01-07 13:34:00,
2013-01-07 07:35:00,24.1,11.8,29.62,SSW,202,12.8,12.8,59,0.00,,,0.00,VWS V14.01,2013-01-07 13:35:00,
2013-01-07 07:36:00,23.7,11.1,29.62,South,180,10.7,10.7,58,0.00,,,0.00,VWS V14.01,2013-01-07 13:36:00,
2013-01-07 07:38:00,23.7,11.1,29.62,SSW,202,11.4,11.4,58,0.00,,,0.00,VWS V14.01,2013-01-07 13:38:00,
2013-01-07 07:40:00,24.1,11.5,29.62,WSW,248,9.4,10.3,58,0.00,,,0.00,VWS V14.01,2013-01-07 13:40:00,
2013-01-07 07:42:00,24.1,11.8,29.62,SSW,202,10.7,10.7,59,0.00,,,0.00,VWS V14.01,2013-01-07 13:42:00,
2013-01-07 07:44:00,24.1,11.8,29.62,South,180,10.7,10.7,59,0.00,,,0.00,VWS V14.01,2013-01-07 13:44:00,
2013-01-07 07:45:00,24.3,11.6,29.65,SW,225,14.1,14.1,58,0.00,,,0.00,VWS V14.01,2013-01-07 13:45:00,
2013-01-07 07:46:00,24.1,11.5,29.62,SSW,202,30.9,30.9,58,0.00,,,0.00,VWS V14.01,2013-01-07 13:46:00,
2013-01-07 07:48:00,24.1,11.5,29.62,SSW,202,16.8,16.8,58,0.00,,,0.00,VWS V14.01,2013-01-07 13:48:00,
2013-01-07 07:50:00,24.3,11.6,29.65,SSW,202,12.1,12.1,58,0.00,,,0.00,VWS V14.01,2013-01-07 13:50:00,
2013-01-07 07:52:00,24.3,11.6,29.65,SSW,202,9.4,9.8,58,0.00,,,0.00,VWS V14.01,2013-01-07 13:52:00,
2013-01-07 07:54:00,24.3,11.6,29.65,South,180,16.1,16.1,58,0.00,,,0.00,VWS V14.01,2013-01-07 13:54:00,
2013-01-07 07:55:00,24.3,11.6,29.65,WSW,248,11.4,11.4,58,0.00,,,0.00,VWS V14.01,2013-01-07 13:55:00,
2013-01-07 07:56:00,24.3,11.6,29.65,SW,225,12.1,12.1,58,0.00,,,0.00,VWS V14.01,2013-01-07 13:56:00,
2013-01-07 07:58:00,24.3,11.6,29.65,SW,225,12.8,12.8,58,0.00,,,0.00,VWS V14.01,2013-01-07 13:58:00,
2013-01-07 08:00:00,24.3,11.6,29.62,SSW,202,12.8,12.8,58,0.00,,,0.00,VWS V14.01,2013-01-07 14:00:00,
2013-01-07 08:02:00,24.3,11.6,29.65,WSW,248,11.4,11.4,58,0.00,,,0.00,VWS V14.01,2013-01-07 14:02:00,
2013-01-07 08:04:00,24.3,11.6,29.65,SW,225,10.1,10.1,58,0.00,,,0.00,VWS V14.01,2013-01-07 14:04:00,
2013-01-07 08:05:00,24.4,11.8,29.62,SSW,202,3.4,4.3,58,0.00,,,0.00,VWS V14.01,2013-01-07 14:05:00,
2013-01-07 08:06:00,24.3,11.6,29.62,SSE,158,7.4,7.4,58,0.00,,,0.00,VWS V14.01,2013-01-07 14:06:00,
2013-01-07 08:08:00,24.4,11.8,29.62,SSE,158,10.7,10.7,58,0.00,,,0.00,VWS V14.01,2013-01-07 14:08:00,
2013-01-07 08:10:00,24.6,12.0,29.62,SSW,202,16.1,16.1,58,0.00,,,0.00,VWS V14.01,2013-01-07 14:10:00,
2013-01-07 08:12:00,24.4,11.8,29.62,SSW,202,4.0,4.3,58,0.00,,,0.00,VWS V14.01,2013-01-07 14:12:00,
2013-01-07 08:14:00,24.4,11.8,29.62,South,180,12.8,12.8,58,0.00,,,0.00,VWS V14.01,2013-01-07 14:14:00,
2013-01-07 08:15:00,24.8,11.7,29.65,SSW,202,11.4,11.4,57,0.00,,,0.00,VWS V14.01,2013-01-07 14:15:00,
2013-01-07 08:16:00,24.4,11.8,29.62,SW,225,16.8,16.8,58,0.00,,,0.00,VWS V14.01,2013-01-07 14:16:00,
2013-01-07 08:18:00,24.6,12.0,29.62,SSW,202,12.1,12.1,58,0.00,,,0.00,VWS V14.01,2013-01-07 14:18:00,
2013-01-07 08:20:00,25.0,11.5,29.65,SW,225,6.7,6.7,56,0.00,,,0.00,VWS V14.01,2013-01-07 14:20:00,
2013-01-07 08:22:00,24.8,11.7,29.65,SSW,202,8.7,8.7,57,0.00,,,0.00,VWS V14.01,2013-01-07 14:22:00,
2013-01-07 08:24:00,24.8,11.7,29.65,SSW,202,16.8,16.8,57,0.00,,,0.00,VWS V14.01,2013-01-07 14:24:00,
2013-01-07 08:25:00,25.3,11.9,29.65,WSW,248,9.4,9.4,56,0.00,,,0.00,VWS V14.01,2013-01-07 14:25:00,
2013-01-07 08:26:00,25.0,11.9,29.65,SW,225,8.7,8.7,57,0.00,,,0.00,VWS V14.01,2013-01-07 14:26:00,
2013-01-07 08:28:00,25.2,11.7,29.65,South,180,14.1,14.1,56,0.00,,,0.00,VWS V14.01,2013-01-07 14:28:00,
2013-01-07 08:30:00,25.7,12.2,29.68,SW,225,2.7,3.8,56,0.00,,,0.00,VWS V14.01,2013-01-07 14:30:00,
2013-01-07 08:32:00,25.3,11.9,29.65,WSW,248,9.4,9.4,56,0.00,,,0.00,VWS V14.01,2013-01-07 14:32:00,
2013-01-07 08:34:00,25.3,11.9,29.65,SSW,202,10.7,10.7,56,0.00,,,0.00,VWS V14.01,2013-01-07 14:34:00,
2013-01-07 08:35:00,26.1,12.1,29.68,WSW,248,8.1,8.1,55,0.00,,,0.00,VWS V14.01,2013-01-07 14:35:00,
2013-01-07 08:36:00,25.5,12.0,29.68,SW,225,11.4,11.4,56,0.00,,,0.00,VWS V14.01,2013-01-07 14:36:00,
2013-01-07 08:38:00,25.7,12.2,29.68,SW,225,12.1,12.1,56,0.00,,,0.00,VWS V14.01,2013-01-07 14:38:00,
2013-01-07 08:40:00,26.4,12.0,29.68,SW,225,8.1,8.1,54,0.00,,,0.00,VWS V14.01,2013-01-07 14:40:00,
2013-01-07 08:42:00,26.1,12.1,29.68,WSW,248,8.1,8.1,55,0.00,,,0.00,VWS V14.01,2013-01-07 14:42:00,
2013-01-07 08:44:00,26.2,12.3,29.68,SW,225,7.4,7.4,55,0.00,,,0.00,VWS V14.01,2013-01-07 14:44:00,
2013-01-07 08:45:00,26.8,12.0,29.68,SW,225,7.4,7.4,53,0.00,,,0.00,VWS V14.01,2013-01-07 14:45:00,
2013-01-07 08:46:00,26.4,12.5,29.68,SSE,158,6.0,6.0,55,0.00,,,0.00,VWS V14.01,2013-01-07 14:46:00,
2013-01-07 08:48:00,26.4,12.0,29.68,SSW,202,4.7,4.7,54,0.00,,,0.00,VWS V14.01,2013-01-07 14:48:00,
2013-01-07 08:50:00,27.0,12.1,29.68,WSW,248,8.7,8.7,53,0.00,,,0.00,VWS V14.01,2013-01-07 14:50:00,
2013-01-07 08:52:00,26.8,12.0,29.68,SW,225,7.4,7.4,53,0.00,,,0.00,VWS V14.01,2013-01-07 14:52:00,
2013-01-07 08:54:00,26.8,12.0,29.68,SSW,202,8.7,8.7,53,0.00,,,0.00,VWS V14.01,2013-01-07 14:54:00,
2013-01-07 08:55:00,27.0,12.1,29.68,WSW,248,4.0,4.0,53,0.00,,,0.00,VWS V14.01,2013-01-07 14:55:00,
2013-01-07 08:56:00,26.8,12.0,29.68,SW,225,10.1,10.1,53,0.00,,,0.00,VWS V14.01,2013-01-07 14:56:00,
2013-01-07 08:58:00,27.0,12.1,29.68,South,180,7.4,7.4,53,0.00,,,0.00,VWS V14.01,2013-01-07 14:58:00,
2013-01-07 09:00:00,27.3,12.5,29.68,SSW,202,7.4,7.4,53,0.00,,,0.00,VWS V14.01,2013-01-07 15:00:00,
2013-01-07 09:02:00,27.0,12.1,29.68,WSW,248,4.0,4.0,53,0.00,,,0.00,VWS V14.01,2013-01-07 15:02:00,
2013-01-07 09:04:00,27.1,12.3,29.68,SW,225,12.8,12.8,53,0.00,,,0.00,VWS V14.01,2013-01-07 15:04:00,
2013-01-07 09:05:00,27.7,12.4,29.68,SW,225,6.7,6.7,52,0.00,,,0.00,VWS V14.01,2013-01-07 15:05:00,
2013-01-07 09:06:00,27.1,12.3,29.68,SSW,202,8.1,8.1,53,0.00,,,0.00,VWS V14.01,2013-01-07 15:06:00,
2013-01-07 09:08:00,27.3,12.0,29.68,SSW,202,12.1,12.1,52,0.00,,,0.00,VWS V14.01,2013-01-07 15:08:00,
2013-01-07 09:10:00,27.9,12.5,29.68,SSW,202,8.7,8.7,52,0.00,,,0.00,VWS V14.01,2013-01-07 15:10:00,
2013-01-07 09:12:00,27.7,12.4,29.68,SSW,202,3.4,3.8,52,0.00,,,0.00,VWS V14.01,2013-01-07 15:12:00,
2013-01-07 09:14:00,27.9,12.5,29.68,SW,225,12.1,12.1,52,0.00,,,0.00,VWS V14.01,2013-01-07 15:14:00,
2013-01-07 09:15:00,28.2,12.4,29.68,SW,225,8.7,8.7,51,0.00,,,0.00,VWS V14.01,2013-01-07 15:15:00,
2013-01-07 09:16:00,27.9,12.5,29.68,WSW,248,4.7,4.7,52,0.00,,,0.00,VWS V14.01,2013-01-07 15:16:00,
2013-01-07 09:18:00,27.9,12.5,29.68,South,180,6.0,6.0,52,0.00,,,0.00,VWS V14.01,2013-01-07 15:18:00,
2013-01-07 09:20:00,28.4,12.1,29.68,SSW,202,11.4,11.4,50,0.00,,,0.00,VWS V14.01,2013-01-07 15:20:00,
2013-01-07 09:22:00,28.2,12.4,29.68,SW,225,8.7,8.7,51,0.00,,,0.00,VWS V14.01,2013-01-07 15:22:00,
2013-01-07 09:24:00,28.2,12.0,29.68,SSW,202,9.4,9.4,50,0.00,,,0.00,VWS V14.01,2013-01-07 15:24:00,
2013-01-07 09:25:00,28.6,11.9,29.68,SSW,202,12.8,12.8,49,0.00,,,0.00,VWS V14.01,2013-01-07 15:25:00,
2013-01-07 09:26:00,28.4,12.1,29.68,SSW,202,8.1,8.1,50,0.00,,,0.00,VWS V14.01,2013-01-07 15:26:00,
2013-01-07 09:28:00,28.6,12.3,29.68,WSW,248,7.4,7.4,50,0.00,,,0.00,VWS V14.01,2013-01-07 15:28:00,
2013-01-07 09:30:00,28.8,11.6,29.68,SSW,202,8.1,8.1,48,0.00,,,0.00,VWS V14.01,2013-01-07 15:30:00,
2013-01-07 09:32:00,28.6,11.9,29.68,SSW,202,12.8,12.8,49,0.00,,,0.00,VWS V14.01,2013-01-07 15:32:00,
2013-01-07 09:34:00,28.8,11.6,29.68,SSE,158,6.7,6.7,48,0.00,,,0.00,VWS V14.01,2013-01-07 15:34:00,
2013-01-07 09:35:00,28.9,11.7,29.68,SW,225,7.4,7.4,48,0.00,,,0.00,VWS V14.01,2013-01-07 15:35:00,
2013-01-07 09:36:00,28.8,11.6,29.68,SSW,202,8.1,8.1,48,0.00,,,0.00,VWS V14.01,2013-01-07 15:36:00,
2013-01-07 09:38:00,28.8,11.6,29.68,SSE,158,7.4,7.4,48,0.00,,,0.00,VWS V14.01,2013-01-07 15:38:00,
2013-01-07 09:40:00,29.1,11.4,29.68,SSW,202,8.1,8.1,47,0.00,,,0.00,VWS V14.01,2013-01-07 15:40:00,
2013-01-07 09:42:00,28.9,11.7,29.68,SW,225,7.4,7.4,48,0.00,,,0.00,VWS V14.01,2013-01-07 15:42:00,
2013-01-07 09:44:00,29.1,11.4,29.68,SSW,202,6.0,6.0,47,0.00,,,0.00,VWS V14.01,2013-01-07 15:44:00,
2013-01-07 09:45:00,29.3,11.6,29.71,SW,225,8.1,8.1,47,0.00,,,0.00,VWS V14.01,2013-01-07 15:45:00,
2013-01-07 09:46:00,29.1,11.4,29.68,WSW,248,4.0,4.0,47,0.00,,,0.00,VWS V14.01,2013-01-07 15:46:00,
2013-01-07 09:48:00,29.1,11.4,29.68,SW,225,10.1,10.1,47,0.00,,,0.00,VWS V14.01,2013-01-07 15:48:00,
2013-01-07 09:50:00,29.5,11.3,29.71,SSW,202,8.7,8.7,46,0.00,,,0.00,VWS V14.01,2013-01-07 15:50:00,
2013-01-07 09:52:00,29.3,11.6,29.71,SW,225,6.0,6.0,47,0.00,,,0.00,VWS V14.01,2013-01-07 15:52:00,
2013-01-07 09:54:00,29.3,11.1,29.71,WSW,248,4.0,4.9,46,0.00,,,0.00,VWS V14.01,2013-01-07 15:54:00,
2013-01-07 09:56:00,29.5,11.8,29.71,South,180,12.1,12.1,47,0.00,,,0.00,VWS V14.01,2013-01-07 15:56:00,
2013-01-07 09:58:00,29.3,11.1,29.71,SW,225,12.8,12.8,46,0.00,,,0.00,VWS V14.01,2013-01-07 15:58:00,
2013-01-07 09:59:00,29.1,10.9,29.71,WNW,292,10.1,10.1,46,0.00,,,0.00,VWS V14.01,2013-01-07 15:59:00,
2013-01-07 10:00:00,29.3,11.1,29.71,South,180,10.7,10.7,46,0.00,,,0.00,VWS V14.01,2013-01-07 16:00:00,
2013-01-07 10:02:00,29.3,11.1,29.71,South,180,8.7,8.7,46,0.00,,,0.00,VWS V14.01,2013-01-07 16:02:00,
2013-01-07 10:04:00,28.8,10.6,29.71,WSW,248,18.1,18.1,46,0.00,,,0.00,VWS V14.01,2013-01-07 16:04:00,
2013-01-07 10:06:00,29.1,10.9,29.71,West,270,17.5,17.5,46,0.00,,,0.00,VWS V14.01,2013-01-07 16:06:00,
2013-01-07 10:08:00,28.9,10.8,29.71,South,180,8.7,8.7,46,0.00,,,0.00,VWS V14.01,2013-01-07 16:08:00,
2013-01-07 10:09:00,28.6,10.4,29.71,WSW,248,7.4,7.4,46,0.00,,,0.00,VWS V14.01,2013-01-07 16:09:00,
2013-01-07 10:10:00,28.8,10.6,29.71,SSW,202,11.4,11.4,46,0.00,,,0.00,VWS V14.01,2013-01-07 16:10:00,
2013-01-07 10:12:00,28.8,10.6,29.71,SSW,202,10.1,10.1,46,0.00,,,0.00,VWS V14.01,2013-01-07 16:12:00,
2013-01-07 10:14:00,28.8,10.6,29.71,SSW,202,4.7,4.7,46,0.00,,,0.00,VWS V14.01,2013-01-07 16:14:00,
2013-01-07 10:16:00,28.6,10.4,29.71,West,270,9.4,9.4,46,0.00,,,0.00,VWS V14.01,2013-01-07 16:16:00,
2013-01-07 10:18:00,28.6,10.4,29.71,SSW,202,4.7,4.7,46,0.00,,,0.00,VWS V14.01,2013-01-07 16:18:00,
2013-01-07 10:19:00,29.1,10.9,29.71,SSW,202,4.7,4.7,46,0.00,,,0.00,VWS V14.01,2013-01-07 16:19:00,
2013-01-07 10:20:00,28.6,10.4,29.71,SSW,202,4.7,4.7,46,0.00,,,0.00,VWS V14.01,2013-01-07 16:20:00,
2013-01-07 10:22:00,28.8,11.1,29.71,SSW,202,4.7,4.7,47,0.00,,,0.00,VWS V14.01,2013-01-07 16:22:00,
2013-01-07 10:24:00,29.8,11.6,29.71,WSW,248,6.0,6.0,46,0.00,,,0.00,VWS V14.01,2013-01-07 16:24:00,
2013-01-07 10:26:00,28.9,11.2,29.71,SSW,202,4.7,4.7,47,0.00,,,0.00,VWS V14.01,2013-01-07 16:26:00,
2013-01-07 10:28:00,29.3,11.1,29.71,SSW,202,4.7,4.7,46,0.00,,,0.00,VWS V14.01,2013-01-07 16:28:00,
2013-01-07 10:29:00,30.4,11.6,29.71,SW,225,4.7,4.7,45,0.00,,,0.00,VWS V14.01,2013-01-07 16:29:00,
2013-01-07 10:30:00,29.5,11.3,29.71,SSW,202,4.7,4.7,46,0.00,,,0.00,VWS V14.01,2013-01-07 16:30:00,
2013-01-07 10:32:00,29.8,11.6,29.71,WSW,248,6.0,6.0,46,0.00,,,0.00,VWS V14.01,2013-01-07 16:32:00,
2013-01-07 10:34:00,30.9,11.6,29.71,SW,225,4.7,4.7,44,0.00,,,0.00,VWS V14.01,2013-01-07 16:34:00,
2013-01-07 10:36:00,30.4,11.6,29.71,SW,225,4.7,4.7,45,0.00,,,0.00,VWS V14.01,2013-01-07 16:36:00,
2013-01-07 10:38:00,30.4,11.6,29.71,SW,225,4.7,4.7,45,0.00,,,0.00,VWS V14.01,2013-01-07 16:38:00,
2013-01-07 10:39:00,31.3,11.9,29.71,SW,225,4.7,4.7,44,0.00,,,0.00,VWS V14.01,2013-01-07 16:39:00,
2013-01-07 10:40:00,30.6,11.8,29.71,SW,225,4.7,4.7,45,0.00,,,0.00,VWS V14.01,2013-01-07 16:40:00,
2013-01-07 10:42:00,30.9,11.6,29.71,SW,225,4.7,4.7,44,0.00,,,0.00,VWS V14.01,2013-01-07 16:42:00,
2013-01-07 10:44:00,31.6,11.7,29.71,WSW,248,8.7,8.7,43,0.00,,,0.00,VWS V14.01,2013-01-07 16:44:00,
2013-01-07 10:46:00,31.3,11.9,29.71,SW,225,4.7,4.7,44,0.00,,,0.00,VWS V14.01,2013-01-07 16:46:00,
2013-01-07 10:48:00,31.5,11.6,29.71,SW,225,12.8,12.8,43,0.00,,,0.00,VWS V14.01,2013-01-07 16:48:00,
2013-01-07 10:49:00,32.7,12.7,29.71,WSW,248,6.0,6.0,43,0.00,,,0.00,VWS V14.01,2013-01-07 16:49:00,
2013-01-07 10:50:00,31.5,11.6,29.71,WSW,248,9.4,9.4,43,0.00,,,0.00,VWS V14.01,2013-01-07 16:50:00,
2013-01-07 10:52:00,31.8,11.9,29.71,WSW,248,8.7,8.7,43,0.00,,,0.00,VWS V14.01,2013-01-07 16:52:00,
2013-01-07 10:54:00,33.3,12.7,29.71,SW,225,4.0,4.0,42,0.00,,,0.00,VWS V14.01,2013-01-07 16:54:00,
2013-01-07 10:56:00,32.5,12.5,29.71,SSW,202,12.1,12.1,43,0.00,,,0.00,VWS V14.01,2013-01-07 16:56:00,
2013-01-07 10:58:00,32.9,12.9,29.71,WSW,248,6.0,6.0,43,0.00,,,0.00,VWS V14.01,2013-01-07 16:58:00,
2013-01-07 11:00:00,33.1,12.5,29.71,SW,225,4.0,4.0,42,0.00,,,0.00,VWS V14.01,2013-01-07 17:00:00,
2013-01-07 11:02:00,33.3,12.7,29.71,South,180,6.7,6.7,42,0.00,,,0.00,VWS V14.01,2013-01-07 17:02:00,
2013-01-07 11:04:00,33.3,12.7,29.71,SW,225,4.0,4.0,42,0.00,,,0.00,VWS V14.01,2013-01-07 17:04:00,
2013-01-07 11:06:00,33.3,12.7,29.71,SW,225,4.0,4.0,42,0.00,,,0.00,VWS V14.01,2013-01-07 17:06:00,
2013-01-07 11:07:00,33.6,13.0,29.71,SW,225,10.7,10.7,42,0.00,,,0.00,VWS V14.01,2013-01-07 17:07:00,
2013-01-07 11:10:00,33.3,12.7,29.71,SW,225,10.7,10.7,42,0.00,,,0.00,VWS V14.01,2013-01-07 17:10:00,
2013-01-07 11:12:00,34.0,12.8,29.71,SW,225,10.7,10.7,41,0.00,,,0.00,VWS V14.01,2013-01-07 17:12:00,
2013-01-07 11:14:00,33.6,13.0,29.71,SW,225,10.7,10.7,42,0.00,,,0.00,VWS V14.01,2013-01-07 17:14:00,
2013-01-07 11:16:00,33.6,12.4,29.71,SW,225,10.7,10.7,41,0.00,,,0.00,VWS V14.01,2013-01-07 17:16:00,
2013-01-07 11:17:00,34.7,13.4,29.71,SW,225,10.7,10.7,41,0.00,,,0.00,VWS V14.01,2013-01-07 17:17:00,
2013-01-07 11:18:00,33.8,12.6,29.71,SW,225,10.7,10.7,41,0.00,,,0.00,VWS V14.01,2013-01-07 17:18:00,
2013-01-07 11:20:00,34.0,12.8,29.71,SW,225,10.7,10.7,41,0.00,,,0.00,VWS V14.01,2013-01-07 17:20:00,
2013-01-07 11:22:00,35.2,13.4,29.71,SW,225,10.7,10.7,40,0.00,,,0.00,VWS V14.01,2013-01-07 17:22:00,
2013-01-07 11:24:00,34.5,13.3,29.71,SW,225,10.7,10.7,41,0.00,,,0.00,VWS V14.01,2013-01-07 17:24:00,
2013-01-07 11:26:00,34.7,13.4,29.71,SW,225,10.7,10.7,41,0.00,,,0.00,VWS V14.01,2013-01-07 17:26:00,
2013-01-07 11:27:00,35.8,13.8,29.71,SSE,158,12.8,12.8,40,0.00,,,0.00,VWS V14.01,2013-01-07 17:27:00,
2013-01-07 11:28:00,34.9,13.0,29.71,SW,225,10.7,10.7,40,0.00,,,0.00,VWS V14.01,2013-01-07 17:28:00,
2013-01-07 11:30:00,35.2,13.4,29.71,SW,225,10.7,10.7,40,0.00,,,0.00,VWS V14.01,2013-01-07 17:30:00,
2013-01-07 11:32:00,36.7,14.1,29.71,SSE,158,12.8,12.8,39,0.00,,,0.00,VWS V14.01,2013-01-07 17:32:00,
2013-01-07 11:34:00,35.8,13.8,29.71,SSE,158,12.8,12.8,40,0.00,,,0.00,VWS V14.01,2013-01-07 17:34:00,
2013-01-07 11:36:00,36.3,13.8,29.71,SSE,158,12.8,12.8,39,0.00,,,0.00,VWS V14.01,2013-01-07 17:36:00,
2013-01-07 11:37:00,37.4,14.7,29.71,SSE,158,12.8,12.8,39,0.00,,,0.00,VWS V14.01,2013-01-07 17:37:00,
2013-01-07 11:38:00,36.5,13.9,29.71,SSE,158,12.8,12.8,39,0.00,,,0.00,VWS V14.01,2013-01-07 17:38:00,
2013-01-07 11:40:00,36.7,14.1,29.71,SSE,158,12.8,12.8,39,0.00,,,0.00,VWS V14.01,2013-01-07 17:40:00,
2013-01-07 11:42:00,37.9,14.6,29.71,SW,225,19.5,19.5,38,0.00,,,0.00,VWS V14.01,2013-01-07 17:42:00,
2013-01-07 11:44:00,37.4,14.7,29.71,SSE,158,12.8,12.8,39,0.00,,,0.00,VWS V14.01,2013-01-07 17:44:00,
2013-01-07 11:46:00,37.6,14.3,29.71,SSW,202,8.7,8.7,38,0.00,,,0.00,VWS V14.01,2013-01-07 17:46:00,
2013-01-07 11:47:00,38.8,14.8,29.71,SW,225,19.5,19.5,37,0.00,,,0.00,VWS V14.01,2013-01-07 17:47:00,
2013-01-07 11:48:00,37.9,14.6,29.71,SW,225,19.5,19.5,38,0.00,,,0.00,VWS V14.01,2013-01-07 17:48:00,
2013-01-07 11:50:00,37.9,14.6,29.71,SW,225,19.5,19.5,38,0.00,,,0.00,VWS V14.01,2013-01-07 17:50:00,
2013-01-07 11:52:00,39.7,14.3,29.71,NE,45,7.4,7.4,35,0.00,,,0.00,VWS V14.01,2013-01-07 17:52:00,
2013-01-07 11:54:00,38.8,14.8,29.71,SW,225,19.5,19.5,37,0.00,,,0.00,VWS V14.01,2013-01-07 17:54:00,
2013-01-07 11:56:00,39.0,14.3,29.71,SW,225,19.5,19.5,36,0.00,,,0.00,VWS V14.01,2013-01-07 17:56:00,
2013-01-07 11:57:00,40.5,14.3,29.71,SSW,202,11.4,11.4,34,0.00,,,0.00,VWS V14.01,2013-01-07 17:57:00,
2013-01-07 11:58:00,39.4,14.0,29.71,SW,225,19.5,19.5,35,0.00,,,0.00,VWS V14.01,2013-01-07 17:58:00,
2013-01-07 12:00:00,39.9,14.5,29.71,SSW,202,11.4,11.4,35,0.00,,,0.00,VWS V14.01,2013-01-07 18:00:00,
2013-01-07 12:02:00,40.5,13.6,29.71,SSW,202,11.4,11.4,33,0.00,,,0.00,VWS V14.01,2013-01-07 18:02:00,
2013-01-07 12:04:00,40.5,14.3,29.71,SSW,202,11.4,11.4,34,0.00,,,0.00,VWS V14.01,2013-01-07 18:04:00,
2013-01-07 12:06:00,40.3,14.2,29.71,SSW,202,11.4,11.4,34,0.00,,,0.00,VWS V14.01,2013-01-07 18:06:00,
2013-01-07 12:07:00,41.0,14.1,29.71,SSW,202,11.4,11.4,33,0.00,,,0.00,VWS V14.01,2013-01-07 18:07:00,
2013-01-07 12:08:00,40.5,14.3,29.71,SSW,202,11.4,11.4,34,0.00,,,0.00,VWS V14.01,2013-01-07 18:08:00,
2013-01-07 12:10:00,40.6,13.8,29.71,SSW,202,11.4,11.4,33,0.00,,,0.00,VWS V14.01,2013-01-07 18:10:00,
2013-01-07 12:12:00,41.4,14.4,29.68,SSW,202,11.4,11.4,33,0.00,,,0.00,VWS V14.01,2013-01-07 18:12:00,
2013-01-07 12:14:00,41.0,14.1,29.71,SSW,202,11.4,11.4,33,0.00,,,0.00,VWS V14.01,2013-01-07 18:14:00,
2013-01-07 12:16:00,41.0,14.1,29.71,SSW,202,11.4,11.4,33,0.00,,,0.00,VWS V14.01,2013-01-07 18:16:00,
2013-01-07 12:17:00,42.1,14.4,29.68,SSW,202,11.4,11.4,32,0.00,,,0.00,VWS V14.01,2013-01-07 18:17:00,
2013-01-07 12:18:00,41.2,13.6,29.71,SSW,202,11.4,11.4,32,0.00,,,0.00,VWS V14.01,2013-01-07 18:18:00,
2013-01-07 12:20:00,41.4,14.4,29.68,SSW,202,11.4,11.4,33,0.00,,,0.00,VWS V14.01,2013-01-07 18:20:00,
2013-01-07 12:22:00,42.3,14.5,29.68,SSW,202,11.4,11.4,32,0.00,,,0.00,VWS V14.01,2013-01-07 18:22:00,
2013-01-07 12:24:00,42.1,14.4,29.68,SSW,202,11.4,11.4,32,0.00,,,0.00,VWS V14.01,2013-01-07 18:24:00,
2013-01-07 12:26:00,42.3,14.5,29.68,SSW,202,11.4,11.4,32,0.00,,,0.00,VWS V14.01,2013-01-07 18:26:00,
2013-01-07 12:27:00,43.2,14.6,29.68,SSW,202,11.4,11.4,31,0.00,,,0.00,VWS V14.01,2013-01-07 18:27:00,
2013-01-07 12:28:00,42.3,14.5,29.68,SSW,202,11.4,11.4,32,0.00,,,0.00,VWS V14.01,2013-01-07 18:28:00,
2013-01-07 12:30:00,42.4,14.7,29.68,SSW,202,11.4,11.4,32,0.00,,,0.00,VWS V14.01,2013-01-07 18:30:00,
2013-01-07 12:32:00,43.7,15.1,29.68,West,270,7.4,7.4,31,0.00,,,0.00,VWS V14.01,2013-01-07 18:32:00,
2013-01-07 12:34:00,42.4,14.7,29.68,SSW,202,11.4,11.4,32,0.00,,,0.00,VWS V14.01,2013-01-07 18:34:00,
2013-01-07 12:36:00,43.2,14.6,29.68,SSW,202,11.4,11.4,31,0.00,,,0.00,VWS V14.01,2013-01-07 18:36:00,
2013-01-07 12:37:00,44.4,15.7,29.68,West,270,7.4,7.4,31,0.00,,,0.00,VWS V14.01,2013-01-07 18:37:00,
2013-01-07 12:38:00,43.7,15.1,29.68,West,270,7.4,7.4,31,0.00,,,0.00,VWS V14.01,2013-01-07 18:38:00,
2013-01-07 12:40:00,44.1,15.4,29.68,West,270,7.4,7.4,31,0.00,,,0.00,VWS V14.01,2013-01-07 18:40:00,
2013-01-07 12:42:00,44.2,14.8,29.68,West,270,7.4,7.4,30,0.00,,,0.00,VWS V14.01,2013-01-07 18:42:00,
2013-01-07 12:44:00,44.4,15.7,29.68,West,270,7.4,7.4,31,0.00,,,0.00,VWS V14.01,2013-01-07 18:44:00,
2013-01-07 12:46:00,44.2,15.5,29.68,West,270,7.4,7.4,31,0.00,,,0.00,VWS V14.01,2013-01-07 18:46:00,
2013-01-07 12:47:00,44.1,14.6,29.68,West,270,7.4,7.4,30,0.00,,,0.00,VWS V14.01,2013-01-07 18:47:00,
2013-01-07 12:48:00,44.2,15.5,29.68,West,270,7.4,7.4,31,0.00,,,0.00,VWS V14.01,2013-01-07 18:48:00,
2013-01-07 12:50:00,44.2,14.8,29.68,West,270,7.4,7.4,30,0.00,,,0.00,VWS V14.01,2013-01-07 18:50:00,
2013-01-07 12:52:00,44.4,14.9,29.68,West,270,7.4,7.4,30,0.00,,,0.00,VWS V14.01,2013-01-07 18:52:00,
2013-01-07 12:54:00,44.1,14.6,29.68,West,270,7.4,7.4,30,0.00,,,0.00,VWS V14.01,2013-01-07 18:54:00,
2013-01-07 12:56:00,44.2,14.8,29.68,West,270,7.4,7.4,30,0.00,,,0.00,VWS V14.01,2013-01-07 18:56:00,
2013-01-07 12:57:00,44.1,14.6,29.68,WSW,248,6.0,6.0,30,0.00,,,0.00,VWS V14.01,2013-01-07 18:57:00,
2013-01-07 12:58:00,44.2,14.8,29.68,West,270,7.4,7.4,30,0.00,,,0.00,VWS V14.01,2013-01-07 18:58:00,
2013-01-07 13:00:00,44.2,14.8,29.68,West,270,7.4,7.4,30,0.00,,,0.00,VWS V14.01,2013-01-07 19:00:00,
2013-01-07 13:02:00,44.4,14.9,29.68,NNW,338,10.7,10.7,30,0.00,,,0.00,VWS V14.01,2013-01-07 19:02:00,
2013-01-07 13:04:00,44.1,14.6,29.68,West,270,7.4,7.4,30,0.00,,,0.00,VWS V14.01,2013-01-07 19:04:00,
2013-01-07 13:06:00,44.4,14.9,29.68,WSW,248,4.7,4.7,30,0.00,,,0.00,VWS V14.01,2013-01-07 19:06:00,
2013-01-07 13:07:00,44.2,14.8,29.68,NNW,338,10.7,10.7,30,0.00,,,0.00,VWS V14.01,2013-01-07 19:07:00,
2013-01-07 13:08:00,44.6,14.3,29.68,NNW,338,10.7,10.7,29,0.00,,,0.00,VWS V14.01,2013-01-07 19:08:00,
2013-01-07 13:10:00,44.8,14.5,29.68,NNW,338,10.7,10.7,29,0.00,,,0.00,VWS V14.01,2013-01-07 19:10:00,
2013-01-07 13:12:00,44.4,14.9,29.68,NNW,338,10.7,10.7,30,0.00,,,0.00,VWS V14.01,2013-01-07 19:12:00,
2013-01-07 13:14:00,44.4,14.9,29.68,NNW,338,10.7,10.7,30,0.00,,,0.00,VWS V14.01,2013-01-07 19:14:00,
2013-01-07 13:16:00,44.4,14.9,29.68,NNW,338,10.7,10.7,30,0.00,,,0.00,VWS V14.01,2013-01-07 19:16:00,
2013-01-07 13:17:00,44.1,14.6,29.65,NNW,338,10.7,10.7,30,0.00,,,0.00,VWS V14.01,2013-01-07 19:17:00,
2013-01-07 13:18:00,44.2,14.8,29.68,NNW,338,10.7,10.7,30,0.00,,,0.00,VWS V14.01,2013-01-07 19:18:00,
2013-01-07 13:20:00,44.2,14.8,29.65,NNW,338,10.7,10.7,30,0.00,,,0.00,VWS V14.01,2013-01-07 19:20:00,
2013-01-07 13:22:00,44.6,14.3,29.65,WSW,248,11.4,11.4,29,0.00,,,0.00,VWS V14.01,2013-01-07 19:22:00,
2013-01-07 13:24:00,44.1,14.6,29.65,NNW,338,10.7,10.7,30,0.00,,,0.00,VWS V14.01,2013-01-07 19:24:00,
2013-01-07 13:26:00,44.2,14.8,29.65,WSW,248,11.4,11.4,30,0.00,,,0.00,VWS V14.01,2013-01-07 19:26:00,
2013-01-07 13:27:00,44.4,14.9,29.65,WSW,248,11.4,11.4,30,0.00,,,0.00,VWS V14.01,2013-01-07 19:27:00,
2013-01-07 13:28:00,44.4,14.9,29.65,WSW,248,11.4,11.4,30,0.00,,,0.00,VWS V14.01,2013-01-07 19:28:00,
2013-01-07 13:30:00,44.6,14.3,29.65,WSW,248,11.4,11.4,29,0.00,,,0.00,VWS V14.01,2013-01-07 19:30:00,
2013-01-07 13:32:00,44.6,14.3,29.68,WSW,248,11.4,11.4,29,0.00,,,0.00,VWS V14.01,2013-01-07 19:32:00,
2013-01-07 13:34:00,44.4,14.9,29.65,WSW,248,11.4,11.4,30,0.00,,,0.00,VWS V14.01,2013-01-07 19:34:00,
2013-01-07 13:36:00,45.0,14.6,29.68,WSW,248,11.4,11.4,29,0.00,,,0.00,VWS V14.01,2013-01-07 19:36:00,
2013-01-07 13:37:00,44.8,14.5,29.68,WSW,248,11.4,11.4,29,0.00,,,0.00,VWS V14.01,2013-01-07 19:37:00,
2013-01-07 13:38:00,44.8,14.5,29.68,WSW,248,11.4,11.4,29,0.00,,,0.00,VWS V14.01,2013-01-07 19:38:00,
2013-01-07 13:40:00,44.4,14.2,29.68,WSW,248,11.4,11.4,29,0.00,,,0.00,VWS V14.01,2013-01-07 19:40:00,
2013-01-07 13:42:00,45.1,14.8,29.68,WSW,248,11.4,11.4,29,0.00,,,0.00,VWS V14.01,2013-01-07 19:42:00,
2013-01-07 13:44:00,44.8,14.5,29.68,WSW,248,11.4,11.4,29,0.00,,,0.00,VWS V14.01,2013-01-07 19:44:00,
2013-01-07 13:46:00,44.8,14.5,29.68,WSW,248,11.4,11.4,29,0.00,,,0.00,VWS V14.01,2013-01-07 19:46:00,
2013-01-07 13:47:00,44.6,14.3,29.68,South,180,16.8,16.8,29,0.00,,,0.00,VWS V14.01,2013-01-07 19:47:00,
2013-01-07 13:48:00,45.0,14.6,29.68,WSW,248,11.4,11.4,29,0.00,,,0.00,VWS V14.01,2013-01-07 19:48:00,
2013-01-07 13:50:00,45.1,14.8,29.68,South,180,16.8,16.8,29,0.00,,,0.00,VWS V14.01,2013-01-07 19:50:00,
2013-01-07 13:52:00,44.8,14.5,29.68,South,180,16.8,16.8,29,0.00,,,0.00,VWS V14.01,2013-01-07 19:52:00,
2013-01-07 13:54:00,44.6,14.3,29.68,South,180,16.8,16.8,29,0.00,,,0.00,VWS V14.01,2013-01-07 19:54:00,
2013-01-07 13:56:00,44.8,14.5,29.68,South,180,16.8,16.8,29,0.00,,,0.00,VWS V14.01,2013-01-07 19:56:00,
2013-01-07 13:57:00,44.8,14.5,29.68,South,180,16.8,16.8,29,0.00,,,0.00,VWS V14.01,2013-01-07 19:57:00,
2013-01-07 13:58:00,45.0,14.6,29.68,South,180,16.8,16.8,29,0.00,,,0.00,VWS V14.01,2013-01-07 19:58:00,
2013-01-07 14:00:00,45.1,14.8,29.68,South,180,16.8,16.8,29,0.00,,,0.00,VWS V14.01,2013-01-07 20:00:00,
2013-01-07 14:02:00,43.5,13.4,29.68,WSW,248,4.7,5.6,29,0.00,,,0.00,VWS V14.01,2013-01-07 20:02:00,
2013-01-07 14:04:00,44.8,14.5,29.68,South,180,16.8,16.8,29,0.00,,,0.00,VWS V14.01,2013-01-07 20:04:00,
2013-01-07 14:06:00,43.9,13.7,29.68,South,180,16.8,16.8,29,0.00,,,0.00,VWS V14.01,2013-01-07 20:06:00,
2013-01-07 14:07:00,43.5,14.2,29.68,WSW,248,4.7,4.7,30,0.00,,,0.00,VWS V14.01,2013-01-07 20:07:00,
2013-01-07 14:08:00,43.5,13.4,29.68,WSW,248,4.7,5.6,29,0.00,,,0.00,VWS V14.01,2013-01-07 20:08:00,
2013-01-07 14:10:00,43.2,13.8,29.68,WSW,248,4.7,4.7,30,0.00,,,0.00,VWS V14.01,2013-01-07 20:10:00,
2013-01-07 14:12:00,43.9,14.5,29.68,West,270,4.7,4.7,30,0.00,,,0.00,VWS V14.01,2013-01-07 20:12:00,
2013-01-07 14:14:00,43.5,14.2,29.68,WSW,248,4.7,4.7,30,0.00,,,0.00,VWS V14.01,2013-01-07 20:14:00,
2013-01-07 14:16:00,43.7,14.3,29.68,WSW,248,4.7,4.7,30,0.00,,,0.00,VWS V14.01,2013-01-07 20:16:00,
2013-01-07 14:17:00,43.9,14.5,29.68,SSW,202,4.7,4.7,30,0.00,,,0.00,VWS V14.01,2013-01-07 20:17:00,
2013-01-07 14:18:00,43.7,14.3,29.68,WSW,248,4.7,4.7,30,0.00,,,0.00,VWS V14.01,2013-01-07 20:18:00,
2013-01-07 14:19:00,43.0,13.7,29.68,SSW,202,4.7,4.7,30,0.00,,,0.00,VWS V14.01,2013-01-07 20:19:00,
2013-01-07 14:20:00,44.1,14.6,29.68,West,270,4.7,4.7,30,0.00,,,0.00,VWS V14.01,2013-01-07 20:20:00,
2013-01-07 14:22:00,43.9,14.5,29.68,SSW,202,4.7,4.7,30,0.00,,,0.00,VWS V14.01,2013-01-07 20:22:00,
2013-01-07 14:24:00,42.1,12.9,29.68,WSW,248,6.7,6.7,30,0.00,,,0.00,VWS V14.01,2013-01-07 20:24:00,
2013-01-07 14:26:00,43.0,13.7,29.68,SSW,202,4.7,4.7,30,0.00,,,0.00,VWS V14.01,2013-01-07 20:26:00,
2013-01-07 14:28:00,42.4,13.2,29.68,SSW,202,4.7,4.7,30,0.00,,,0.00,VWS V14.01,2013-01-07 20:28:00,
2013-01-07 14:29:00,41.4,12.3,29.68,WSW,248,6.7,6.7,30,0.00,,,0.00,VWS V14.01,2013-01-07 20:29:00,
2013-01-07 14:30:00,42.3,13.1,29.68,SSW,202,4.7,4.7,30,0.00,,,0.00,VWS V14.01,2013-01-07 20:30:00,
2013-01-07 14:32:00,41.9,12.7,29.68,WSW,248,6.7,6.7,30,0.00,,,0.00,VWS V14.01,2013-01-07 20:32:00,
2013-01-07 14:34:00,40.6,12.4,29.68,WSW,248,6.7,6.7,31,0.00,,,0.00,VWS V14.01,2013-01-07 20:34:00,
2013-01-07 14:36:00,41.4,12.3,29.68,WSW,248,6.7,6.7,30,0.00,,,0.00,VWS V14.01,2013-01-07 20:36:00,
2013-01-07 14:38:00,41.0,12.0,29.68,WSW,248,6.7,6.7,30,0.00,,,0.00,VWS V14.01,2013-01-07 20:38:00,
2013-01-07 14:39:00,40.5,12.2,29.68,WSW,248,6.0,6.0,31,0.00,,,0.00,VWS V14.01,2013-01-07 20:39:00,
2013-01-07 14:40:00,40.8,12.5,29.68,WSW,248,6.7,6.7,31,0.00,,,0.00,VWS V14.01,2013-01-07 20:40:00,
2013-01-07 14:42:00,40.6,12.4,29.68,WSW,248,6.0,6.0,31,0.00,,,0.00,VWS V14.01,2013-01-07 20:42:00,
2013-01-07 14:44:00,40.5,12.2,29.71,WSW,248,6.0,6.0,31,0.00,,,0.00,VWS V14.01,2013-01-07 20:44:00,
2013-01-07 14:46:00,40.5,12.2,29.68,WSW,248,6.0,6.0,31,0.00,,,0.00,VWS V14.01,2013-01-07 20:46:00,
2013-01-07 14:48:00,40.3,12.1,29.68,WSW,248,6.0,6.0,31,0.00,,,0.00,VWS V14.01,2013-01-07 20:48:00,
2013-01-07 14:49:00,40.6,12.4,29.71,WSW,248,6.0,6.0,31,0.00,,,0.00,VWS V14.01,2013-01-07 20:49:00,
2013-01-07 14:50:00,40.5,12.2,29.71,WSW,248,6.0,6.0,31,0.00,,,0.00,VWS V14.01,2013-01-07 20:50:00,
2013-01-07 14:52:00,40.5,12.2,29.71,WSW,248,6.0,6.0,31,0.00,,,0.00,VWS V14.01,2013-01-07 20:52:00,
2013-01-07 14:54:00,40.6,12.4,29.71,WSW,248,6.0,6.0,31,0.00,,,0.00,VWS V14.01,2013-01-07 20:54:00,
2013-01-07 14:56:00,40.6,12.4,29.71,WSW,248,6.0,6.0,31,0.00,,,0.00,VWS V14.01,2013-01-07 20:56:00,
2013-01-07 14:58:00,40.6,12.4,29.71,WSW,248,6.0,6.0,31,0.00,,,0.00,VWS V14.01,2013-01-07 20:58:00,
2013-01-07 14:59:00,40.1,11.9,29.71,WSW,248,6.0,6.0,31,0.00,,,0.00,VWS V14.01,2013-01-07 20:59:00,
2013-01-07 15:00:00,40.6,12.4,29.71,WSW,248,6.0,6.0,31,0.00,,,0.00,VWS V14.01,2013-01-07 21:00:00,
2013-01-07 15:02:00,40.5,12.2,29.71,WSW,248,6.0,6.0,31,0.00,,,0.00,VWS V14.01,2013-01-07 21:02:00,
2013-01-07 15:04:00,39.2,11.1,29.71,WSW,248,6.0,6.0,31,0.00,,,0.00,VWS V14.01,2013-01-07 21:04:00,
2013-01-07 15:06:00,40.1,11.9,29.71,WSW,248,6.0,6.0,31,0.00,,,0.00,VWS V14.01,2013-01-07 21:06:00,
2013-01-07 15:08:00,39.7,11.6,29.71,WSW,248,6.0,6.0,31,0.00,,,0.00,VWS V14.01,2013-01-07 21:08:00,
2013-01-07 15:09:00,38.8,11.5,29.71,WSW,248,6.0,6.0,32,0.00,,,0.00,VWS V14.01,2013-01-07 21:09:00,
2013-01-07 15:10:00,39.4,11.3,29.71,WSW,248,6.0,6.0,31,0.00,,,0.00,VWS V14.01,2013-01-07 21:10:00,
2013-01-07 15:12:00,39.2,11.8,29.71,WSW,248,6.0,6.0,32,0.00,,,0.00,VWS V14.01,2013-01-07 21:12:00,
2013-01-07 15:13:00,38.5,11.2,29.71,WSW,248,6.0,6.0,32,0.00,,,0.00,VWS V14.01,2013-01-07 21:13:00,
2013-01-07 15:14:00,39.0,11.7,29.71,WSW,248,6.0,6.0,32,0.00,,,0.00,VWS V14.01,2013-01-07 21:14:00,
2013-01-07 15:16:00,38.7,11.4,29.71,WSW,248,6.0,6.0,32,0.00,,,0.00,VWS V14.01,2013-01-07 21:16:00,
2013-01-07 15:18:00,37.9,11.4,29.71,WSW,248,6.0,6.0,33,0.00,,,0.00,VWS V14.01,2013-01-07 21:18:00,
2013-01-07 15:20:00,38.5,11.2,29.71,WSW,248,6.0,6.0,32,0.00,,,0.00,VWS V14.01,2013-01-07 21:20:00,
2013-01-07 15:22:00,38.3,11.0,29.71,WSW,248,6.0,6.0,32,0.00,,,0.00,VWS V14.01,2013-01-07 21:22:00,
2013-01-07 15:23:00,37.6,11.1,29.71,WSW,248,6.0,6.0,33,0.00,,,0.00,VWS V14.01,2013-01-07 21:23:00,
2013-01-07 15:24:00,38.1,10.9,29.71,WSW,248,6.0,6.0,32,0.00,,,0.00,VWS V14.01,2013-01-07 21:24:00,
2013-01-07 15:26:00,37.9,11.4,29.71,WSW,248,6.0,6.0,33,0.00,,,0.00,VWS V14.01,2013-01-07 21:26:00,
2013-01-07 15:28:00,37.4,10.9,29.71,WSW,248,6.0,6.0,33,0.00,,,0.00,VWS V14.01,2013-01-07 21:28:00,
2013-01-07 15:30:00,37.8,11.3,29.71,WSW,248,6.0,6.0,33,0.00,,,0.00,VWS V14.01,2013-01-07 21:30:00,
2013-01-07 15:32:00,37.4,10.9,29.71,WSW,248,6.0,6.0,33,0.00,,,0.00,VWS V14.01,2013-01-07 21:32:00,
2013-01-07 15:33:00,37.2,11.4,29.71,WSW,248,6.0,6.0,34,0.00,,,0.00,VWS V14.01,2013-01-07 21:33:00,
2013-01-07 15:34:00,37.4,10.9,29.71,WSW,248,6.0,6.0,33,0.00,,,0.00,VWS V14.01,2013-01-07 21:34:00,
2013-01-07 15:36:00,37.4,10.9,29.71,WSW,248,6.0,6.0,33,0.00,,,0.00,VWS V14.01,2013-01-07 21:36:00,
2013-01-07 15:38:00,37.0,11.3,29.71,WNW,292,8.1,8.1,34,0.00,,,0.00,VWS V14.01,2013-01-07 21:38:00,
2013-01-07 15:40:00,37.2,11.4,29.71,WSW,248,6.0,6.0,34,0.00,,,0.00,VWS V14.01,2013-01-07 21:40:00,
2013-01-07 15:42:00,37.2,11.4,29.71,South,180,7.4,7.4,34,0.00,,,0.00,VWS V14.01,2013-01-07 21:42:00,
2013-01-07 15:43:00,36.9,11.8,29.71,South,180,10.7,10.7,35,0.00,,,0.00,VWS V14.01,2013-01-07 21:43:00,
2013-01-07 15:44:00,37.0,11.3,29.71,SSW,202,7.4,7.4,34,0.00,,,0.00,VWS V14.01,2013-01-07 21:44:00,
2013-01-07 15:46:00,37.0,11.3,29.71,WSW,248,10.1,10.1,34,0.00,,,0.00,VWS V14.01,2013-01-07 21:46:00,
2013-01-07 15:48:00,36.9,11.8,29.71,SW,225,10.1,10.1,35,0.00,,,0.00,VWS V14.01,2013-01-07 21:48:00,
2013-01-07 15:50:00,36.9,11.8,29.71,SSW,202,8.7,8.7,35,0.00,,,0.00,VWS V14.01,2013-01-07 21:50:00,
2013-01-07 15:52:00,36.9,11.8,29.71,West,270,8.1,8.1,35,0.00,,,0.00,VWS V14.01,2013-01-07 21:52:00,
2013-01-07 15:53:00,36.7,12.3,29.71,ENE,68,6.0,6.0,36,0.00,,,0.00,VWS V14.01,2013-01-07 21:53:00,
2013-01-07 15:54:00,36.9,11.8,29.71,SW,225,7.4,7.4,35,0.00,,,0.00,VWS V14.01,2013-01-07 21:54:00,
2013-01-07 15:56:00,36.9,11.8,29.71,WSW,248,6.7,6.7,35,0.00,,,0.00,VWS V14.01,2013-01-07 21:56:00,
2013-01-07 15:58:00,36.3,11.9,29.68,SW,225,9.4,9.4,36,0.00,,,0.00,VWS V14.01,2013-01-07 21:58:00,
2013-01-07 16:00:00,36.7,12.3,29.71,SSW,202,6.0,6.0,36,0.00,,,0.00,VWS V14.01,2013-01-07 22:00:00,
2013-01-07 16:02:00,36.5,12.1,29.71,WSW,248,12.8,12.8,36,0.00,,,0.00,VWS V14.01,2013-01-07 22:02:00,
2013-01-07 16:03:00,36.1,12.4,29.68,WSW,248,7.4,7.4,37,0.00,,,0.00,VWS V14.01,2013-01-07 22:03:00,
2013-01-07 16:04:00,36.3,11.9,29.71,WSW,248,16.1,16.1,36,0.00,,,0.00,VWS V14.01,2013-01-07 22:04:00,
2013-01-07 16:06:00,36.3,11.9,29.68,SW,225,10.7,10.7,36,0.00,,,0.00,VWS V14.01,2013-01-07 22:06:00,
2013-01-07 16:08:00,35.8,12.1,29.68,WSW,248,10.7,10.7,37,0.00,,,0.00,VWS V14.01,2013-01-07 22:08:00,
2013-01-07 16:10:00,36.1,12.4,29.68,WSW,248,8.1,8.1,37,0.00,,,0.00,VWS V14.01,2013-01-07 22:10:00,
2013-01-07 16:12:00,36.0,12.2,29.68,WSW,248,2.7,2.7,37,0.00,,,0.00,VWS V14.01,2013-01-07 22:12:00,
2013-01-07 16:13:00,35.6,12.5,29.71,WNW,292,9.4,9.4,38,0.00,,,0.00,VWS V14.01,2013-01-07 22:13:00,
2013-01-07 16:14:00,36.0,12.2,29.68,WSW,248,10.1,10.1,37,0.00,,,0.00,VWS V14.01,2013-01-07 22:14:00,
2013-01-07 16:16:00,35.8,12.1,29.68,WSW,248,8.7,8.7,37,0.00,,,0.00,VWS V14.01,2013-01-07 22:16:00,
2013-01-07 16:18:00,35.2,12.8,29.71,West,270,8.1,8.1,39,0.00,,,0.00,VWS V14.01,2013-01-07 22:18:00,
2013-01-07 16:20:00,35.6,11.9,29.71,WSW,248,9.4,9.4,37,0.00,,,0.00,VWS V14.01,2013-01-07 22:20:00,
2013-01-07 16:22:00,35.4,12.4,29.71,South,180,0.0,3.1,38,0.00,,,0.00,VWS V14.01,2013-01-07 22:22:00,
2013-01-07 16:23:00,34.9,13.0,29.71,WSW,248,0.0,3.1,40,0.00,,,0.00,VWS V14.01,2013-01-07 22:23:00,
2013-01-07 16:24:00,35.4,12.9,29.71,WSW,248,6.0,6.0,39,0.00,,,0.00,VWS V14.01,2013-01-07 22:24:00,
2013-01-07 16:26:00,35.2,12.8,29.71,WSW,248,8.7,8.7,39,0.00,,,0.00,VWS V14.01,2013-01-07 22:26:00,
2013-01-07 16:28:00,34.5,12.7,29.68,South,180,4.0,4.3,40,0.00,,,0.00,VWS V14.01,2013-01-07 22:28:00,
2013-01-07 16:30:00,35.1,13.2,29.71,SW,225,7.4,7.4,40,0.00,,,0.00,VWS V14.01,2013-01-07 22:30:00,
2013-01-07 16:32:00,34.9,13.0,29.71,SSW,202,2.7,2.7,40,0.00,,,0.00,VWS V14.01,2013-01-07 22:32:00,
2013-01-07 16:33:00,34.5,12.7,29.68,NNW,338,10.1,10.1,40,0.00,,,0.00,VWS V14.01,2013-01-07 22:33:00,
2013-01-07 16:34:00,34.7,12.9,29.71,South,180,3.4,3.4,40,0.00,,,0.00,VWS V14.01,2013-01-07 22:34:00,
2013-01-07 16:36:00,34.5,12.7,29.68,WSW,248,8.7,8.7,40,0.00,,,0.00,VWS V14.01,2013-01-07 22:36:00,
2013-01-07 16:38:00,34.3,12.5,29.68,West,270,12.1,12.1,40,0.00,,,0.00,VWS V14.01,2013-01-07 22:38:00,
2013-01-07 16:40:00,34.5,12.7,29.68,West,270,7.4,7.4,40,0.00,,,0.00,VWS V14.01,2013-01-07 22:40:00,
2013-01-07 16:42:00,34.3,12.5,29.68,SW,225,10.1,10.1,40,0.00,,,0.00,VWS V14.01,2013-01-07 22:42:00,
2013-01-07 16:43:00,34.2,12.4,29.71,SSW,202,10.7,10.7,40,0.00,,,0.00,VWS V14.01,2013-01-07 22:43:00,
2013-01-07 16:44:00,34.3,12.5,29.68,WNW,292,6.7,6.7,40,0.00,,,0.00,VWS V14.01,2013-01-07 22:44:00,
2013-01-07 16:46:00,34.3,12.5,29.68,SW,225,10.7,10.7,40,0.00,,,0.00,VWS V14.01,2013-01-07 22:46:00,
2013-01-07 16:48:00,33.8,12.1,29.71,SW,225,4.0,4.0,40,0.00,,,0.00,VWS V14.01,2013-01-07 22:48:00,
2013-01-07 16:50:00,34.2,12.4,29.71,WSW,248,4.0,4.9,40,0.00,,,0.00,VWS V14.01,2013-01-07 22:50:00,
2013-01-07 16:52:00,34.0,12.2,29.71,SW,225,4.0,4.0,40,0.00,,,0.00,VWS V14.01,2013-01-07 22:52:00,
2013-01-07 16:53:00,33.6,12.4,29.71,SW,225,4.0,4.0,41,0.00,,,0.00,VWS V14.01,2013-01-07 22:53:00,
2013-01-07 16:54:00,34.0,12.2,29.71,SW,225,4.0,4.0,40,0.00,,,0.00,VWS V14.01,2013-01-07 22:54:00,
2013-01-07 16:56:00,33.8,12.1,29.71,SW,225,4.0,4.0,40,0.00,,,0.00,VWS V14.01,2013-01-07 22:56:00,
2013-01-07 16:58:00,33.4,12.3,29.71,SW,225,4.0,4.0,41,0.00,,,0.00,VWS V14.01,2013-01-07 22:58:00,
2013-01-07 17:00:00,33.6,12.4,29.71,SW,225,4.0,4.0,41,0.00,,,0.00,VWS V14.01,2013-01-07 23:00:00,
2013-01-07 17:02:00,33.6,12.4,29.71,SW,225,4.0,4.0,41,0.00,,,0.00,VWS V14.01,2013-01-07 23:02:00,
2013-01-07 17:03:00,33.3,12.1,29.71,SW,225,4.0,4.0,41,0.00,,,0.00,VWS V14.01,2013-01-07 23:03:00,
2013-01-07 17:04:00,33.4,12.3,29.71,SW,225,4.0,4.0,41,0.00,,,0.00,VWS V14.01,2013-01-07 23:04:00,
2013-01-07 17:06:00,33.4,12.3,29.71,SW,225,4.0,4.0,41,0.00,,,0.00,VWS V14.01,2013-01-07 23:06:00,
2013-01-07 17:08:00,33.1,12.0,29.71,SW,225,4.0,4.0,41,0.00,,,0.00,VWS V14.01,2013-01-07 23:08:00,
2013-01-07 17:10:00,33.3,12.1,29.71,SW,225,4.0,4.0,41,0.00,,,0.00,VWS V14.01,2013-01-07 23:10:00,
2013-01-07 17:12:00,33.3,12.1,29.71,SW,225,4.0,4.0,41,0.00,,,0.00,VWS V14.01,2013-01-07 23:12:00,
2013-01-07 17:13:00,32.7,11.6,29.71,SW,225,4.0,4.0,41,0.00,,,0.00,VWS V14.01,2013-01-07 23:13:00,
2013-01-07 17:14:00,33.1,12.0,29.71,SW,225,4.0,4.0,41,0.00,,,0.00,VWS V14.01,2013-01-07 23:14:00,
2013-01-07 17:16:00,33.1,12.0,29.71,SW,225,4.0,4.0,41,0.00,,,0.00,VWS V14.01,2013-01-07 23:16:00,
2013-01-07 17:18:00,32.5,12.0,29.71,SW,225,4.0,4.0,42,0.00,,,0.00,VWS V14.01,2013-01-07 23:18:00,
2013-01-07 17:20:00,32.7,11.6,29.71,SW,225,4.0,4.0,41,0.00,,,0.00,VWS V14.01,2013-01-07 23:20:00,
2013-01-07 17:22:00,32.5,11.5,29.71,SW,225,4.0,4.0,41,0.00,,,0.00,VWS V14.01,2013-01-07 23:22:00,
2013-01-07 17:23:00,32.2,11.7,29.71,SW,225,4.0,4.0,42,0.00,,,0.00,VWS V14.01,2013-01-07 23:23:00,
2013-01-07 17:24:00,32.5,12.0,29.71,SW,225,4.0,4.0,42,0.00,,,0.00,VWS V14.01,2013-01-07 23:24:00,
2013-01-07 17:26:00,32.5,12.0,29.71,SW,225,4.0,4.0,42,0.00,,,0.00,VWS V14.01,2013-01-07 23:26:00,
2013-01-07 17:28:00,31.8,11.4,29.71,SW,225,4.0,4.0,42,0.00,,,0.00,VWS V14.01,2013-01-07 23:28:00,
2013-01-07 17:30:00,32.2,11.7,29.71,SW,225,4.0,4.0,42,0.00,,,0.00,VWS V14.01,2013-01-07 23:30:00,
2013-01-07 17:32:00,32.0,11.5,29.71,SW,225,4.0,4.0,42,0.00,,,0.00,VWS V14.01,2013-01-07 23:32:00,
2013-01-07 17:33:00,31.5,11.6,29.71,SW,225,4.0,4.0,43,0.00,,,0.00,VWS V14.01,2013-01-07 23:33:00,
2013-01-07 17:34:00,32.0,11.5,29.71,SW,225,4.0,4.0,42,0.00,,,0.00,VWS V14.01,2013-01-07 23:34:00,
2013-01-07 17:36:00,31.8,11.4,29.71,SW,225,4.0,4.0,42,0.00,,,0.00,VWS V14.01,2013-01-07 23:36:00,
2013-01-07 17:38:00,31.1,11.2,29.71,SW,225,4.0,4.0,43,0.00,,,0.00,VWS V14.01,2013-01-07 23:38:00,
2013-01-07 17:40:00,31.5,11.6,29.71,SW,225,4.0,4.0,43,0.00,,,0.00,VWS V14.01,2013-01-07 23:40:00,
2013-01-07 17:42:00,31.3,11.4,29.71,SW,225,4.0,4.0,43,0.00,,,0.00,VWS V14.01,2013-01-07 23:42:00,
2013-01-07 17:43:00,30.6,10.7,29.71,SW,225,4.0,4.0,43,0.00,,,0.00,VWS V14.01,2013-01-07 23:43:00,
2013-01-07 17:44:00,31.1,11.2,29.71,SW,225,4.0,4.0,43,0.00,,,0.00,VWS V14.01,2013-01-07 23:44:00,
2013-01-07 17:46:00,31.1,11.2,29.71,SW,225,4.0,4.0,43,0.00,,,0.00,VWS V14.01,2013-01-07 23:46:00,
2013-01-07 17:48:00,30.0,10.8,29.71,SW,225,4.0,4.0,44,0.00,,,0.00,VWS V14.01,2013-01-07 23:48:00,
2013-01-07 17:50:00,30.6,10.7,29.71,SW,225,4.0,4.0,43,0.00,,,0.00,VWS V14.01,2013-01-07 23:50:00,
2013-01-07 17:52:00,30.4,10.6,29.71,SW,225,4.0,4.0,43,0.00,,,0.00,VWS V14.01,2013-01-07 23:52:00,
2013-01-07 17:53:00,29.5,10.3,29.71,SW,225,4.0,4.0,44,0.00,,,0.00,VWS V14.01,2013-01-07 23:53:00,
2013-01-07 17:54:00,30.2,10.9,29.71,SW,225,4.0,4.0,44,0.00,,,0.00,VWS V14.01,2013-01-07 23:54:00,
2013-01-07 17:56:00,29.8,10.6,29.71,SW,225,4.0,4.0,44,0.00,,,0.00,VWS V14.01,2013-01-07 23:56:00,
2013-01-07 17:58:00,29.1,9.9,29.74,SW,225,4.0,4.0,44,0.00,,,0.00,VWS V14.01,2013-01-07 23:58:00,
2013-01-07 18:00:00,29.7,10.4,29.71,SW,225,4.0,4.0,44,0.00,,,0.00,VWS V14.01,2013-01-08 00:00:00,
2013-01-07 18:02:00,29.5,10.3,29.71,SW,225,4.0,4.0,44,0.00,,,0.00,VWS V14.01,2013-01-08 00:02:00,
2013-01-07 18:03:00,29.1,10.9,29.74,SW,225,4.0,4.0,46,0.00,,,0.00,VWS V14.01,2013-01-08 00:03:00,
2013-01-07 18:04:00,29.3,10.1,29.71,SW,225,4.0,4.0,44,0.00,,,0.00,VWS V14.01,2013-01-08 00:04:00,
2013-01-07 18:06:00,29.1,10.4,29.74,SW,225,4.0,4.0,45,0.00,,,0.00,VWS V14.01,2013-01-08 00:06:00,
2013-01-07 18:08:00,28.9,11.2,29.74,SSW,202,6.0,6.0,47,0.00,,,0.00,VWS V14.01,2013-01-08 00:08:00,
2013-01-07 18:10:00,29.1,10.9,29.74,SW,225,4.0,4.0,46,0.00,,,0.00,VWS V14.01,2013-01-08 00:10:00,
2013-01-07 18:12:00,28.9,10.8,29.74,WSW,248,4.7,4.7,46,0.00,,,0.00,VWS V14.01,2013-01-08 00:12:00,
2013-01-07 18:13:00,28.6,10.9,29.74,SSW,202,6.0,6.0,47,0.00,,,0.00,VWS V14.01,2013-01-08 00:13:00,
2013-01-07 18:14:00,28.9,11.2,29.74,WSW,248,4.7,4.7,47,0.00,,,0.00,VWS V14.01,2013-01-08 00:14:00,
2013-01-07 18:16:00,28.9,11.2,29.74,SSW,202,6.0,6.0,47,0.00,,,0.00,VWS V14.01,2013-01-08 00:16:00,
2013-01-07 18:18:00,28.6,10.9,29.74,SSW,202,6.0,6.0,47,0.00,,,0.00,VWS V14.01,2013-01-08 00:18:00,
2013-01-07 18:20:00,28.6,10.9,29.74,SSW,202,6.0,6.0,47,0.00,,,0.00,VWS V14.01,2013-01-08 00:20:00,
2013-01-07 18:22:00,28.4,10.8,29.74,SSW,202,6.0,6.0,47,0.00,,,0.00,VWS V14.01,2013-01-08 00:22:00,
2013-01-07 18:23:00,28.8,12.0,29.74,SSW,202,6.0,6.0,49,0.00,,,0.00,VWS V14.01,2013-01-08 00:23:00,
2013-01-07 18:24:00,28.4,10.8,29.74,SSW,202,6.0,6.0,47,0.00,,,0.00,VWS V14.01,2013-01-08 00:24:00,
2013-01-07 18:26:00,28.6,11.4,29.74,SSW,202,6.0,6.0,48,0.00,,,0.00,VWS V14.01,2013-01-08 00:26:00,
2013-01-07 18:28:00,28.4,11.7,29.74,SSW,202,6.0,6.0,49,0.00,,,0.00,VWS V14.01,2013-01-08 00:28:00,
2013-01-07 18:30:00,28.8,12.0,29.74,SSW,202,6.0,6.0,49,0.00,,,0.00,VWS V14.01,2013-01-08 00:30:00,
2013-01-07 18:32:00,28.6,11.9,29.74,SSW,202,6.0,6.0,49,0.00,,,0.00,VWS V14.01,2013-01-08 00:32:00,
2013-01-07 18:33:00,28.0,10.9,29.74,SSW,202,6.0,6.0,48,0.00,,,0.00,VWS V14.01,2013-01-08 00:33:00,
2013-01-07 18:34:00,28.4,11.2,29.74,SSW,202,6.0,6.0,48,0.00,,,0.00,VWS V14.01,2013-01-08 00:34:00,
2013-01-07 18:36:00,28.4,11.7,29.74,SSW,202,6.0,6.0,49,0.00,,,0.00,VWS V14.01,2013-01-08 00:36:00,
2013-01-07 18:38:00,27.9,11.2,29.74,SSW,202,6.0,6.0,49,0.00,,,0.00,VWS V14.01,2013-01-08 00:38:00,
2013-01-07 18:40:00,28.0,10.9,29.74,SSW,202,6.0,6.0,48,0.00,,,0.00,VWS V14.01,2013-01-08 00:40:00,
2013-01-07 18:42:00,28.0,11.4,29.74,SSW,202,6.0,6.0,49,0.00,,,0.00,VWS V14.01,2013-01-08 00:42:00,
2013-01-07 18:43:00,27.9,11.6,29.74,SSW,202,6.0,6.0,50,0.00,,,0.00,VWS V14.01,2013-01-08 00:43:00,
2013-01-07 18:44:00,28.0,11.4,29.74,SSW,202,6.0,6.0,49,0.00,,,0.00,VWS V14.01,2013-01-08 00:44:00,
2013-01-07 18:46:00,27.9,11.2,29.74,SSW,202,6.0,6.0,49,0.00,,,0.00,VWS V14.01,2013-01-08 00:46:00,
2013-01-07 18:48:00,27.9,12.1,29.74,SSW,202,6.0,6.0,51,0.00,,,0.00,VWS V14.01,2013-01-08 00:48:00,
2013-01-07 18:50:00,27.9,11.6,29.74,SSW,202,6.0,6.0,50,0.00,,,0.00,VWS V14.01,2013-01-08 00:50:00,
2013-01-07 18:52:00,27.9,12.1,29.74,SSW,202,6.0,6.0,51,0.00,,,0.00,VWS V14.01,2013-01-08 00:52:00,
2013-01-07 18:53:00,27.7,11.9,29.74,SSW,202,6.0,6.0,51,0.00,,,0.00,VWS V14.01,2013-01-08 00:53:00,
2013-01-07 18:54:00,27.9,12.1,29.74,SSW,202,6.0,6.0,51,0.00,,,0.00,VWS V14.01,2013-01-08 00:54:00,
2013-01-07 18:56:00,27.9,12.1,29.74,SSW,202,6.0,6.0,51,0.00,,,0.00,VWS V14.01,2013-01-08 00:56:00,
2013-01-07 18:58:00,27.5,11.8,29.76,WSW,248,3.4,3.4,51,0.00,,,0.00,VWS V14.01,2013-01-08 00:58:00,
2013-01-07 19:00:00,27.7,11.9,29.74,SSW,202,6.0,6.0,51,0.00,,,0.00,VWS V14.01,2013-01-08 01:00:00,
2013-01-07 19:02:00,27.7,11.9,29.74,WSW,248,6.0,6.0,51,0.00,,,0.00,VWS V14.01,2013-01-08 01:02:00,
2013-01-07 19:03:00,27.7,11.9,29.76,WSW,248,3.4,3.4,51,0.00,,,0.00,VWS V14.01,2013-01-08 01:03:00,
2013-01-07 19:04:00,27.5,11.8,29.74,WSW,248,4.7,4.7,51,0.00,,,0.00,VWS V14.01,2013-01-08 01:04:00,
2013-01-07 19:06:00,27.5,11.8,29.76,WSW,248,3.4,3.4,51,0.00,,,0.00,VWS V14.01,2013-01-08 01:06:00,
2013-01-07 19:08:00,27.7,11.9,29.76,WSW,248,3.4,3.4,51,0.00,,,0.00,VWS V14.01,2013-01-08 01:08:00,
2013-01-07 19:10:00,27.5,11.8,29.76,WSW,248,3.4,3.4,51,0.00,,,0.00,VWS V14.01,2013-01-08 01:10:00,
2013-01-07 19:12:00,27.7,11.9,29.76,WSW,248,3.4,3.4,51,0.00,,,0.00,VWS V14.01,2013-01-08 01:12:00,
2013-01-07 19:13:00,27.9,12.5,29.74,WSW,248,3.4,3.4,52,0.00,,,0.00,VWS V14.01,2013-01-08 01:13:00,
2013-01-07 19:14:00,27.7,11.9,29.76,WSW,248,3.4,3.4,51,0.00,,,0.00,VWS V14.01,2013-01-08 01:14:00,
2013-01-07 19:16:00,27.9,12.1,29.76,WSW,248,3.4,3.4,51,0.00,,,0.00,VWS V14.01,2013-01-08 01:16:00,
2013-01-07 19:18:00,27.9,12.5,29.74,SSW,202,8.1,8.1,52,0.00,,,0.00,VWS V14.01,2013-01-08 01:18:00,
2013-01-07 19:20:00,27.9,12.5,29.74,WSW,248,3.4,3.4,52,0.00,,,0.00,VWS V14.01,2013-01-08 01:20:00,
2013-01-07 19:22:00,27.9,12.5,29.74,South,180,9.4,9.4,52,0.00,,,0.00,VWS V14.01,2013-01-08 01:22:00,
2013-01-07 19:23:00,28.0,12.7,29.74,SSW,202,8.1,8.1,52,0.00,,,0.00,VWS V14.01,2013-01-08 01:23:00,
2013-01-07 19:24:00,27.9,12.5,29.74,SSW,202,2.7,3.1,52,0.00,,,0.00,VWS V14.01,2013-01-08 01:24:00,
2013-01-07 19:26:00,27.9,12.5,29.74,SSW,202,8.1,8.1,52,0.00,,,0.00,VWS V14.01,2013-01-08 01:26:00,
2013-01-07 19:28:00,28.0,12.7,29.74,SSW,202,8.1,8.1,52,0.00,,,0.00,VWS V14.01,2013-01-08 01:28:00,
2013-01-07 19:30:00,28.0,12.7,29.74,SSW,202,8.1,8.1,52,0.00,,,0.00,VWS V14.01,2013-01-08 01:30:00,
2013-01-07 19:32:00,28.0,12.7,29.74,SSW,202,8.1,8.1,52,0.00,,,0.00,VWS V14.01,2013-01-08 01:32:00,
2013-01-07 19:33:00,27.7,11.9,29.74,SSW,202,8.1,8.1,51,0.00,,,0.00,VWS V14.01,2013-01-08 01:33:00,
2013-01-07 19:34:00,28.0,12.7,29.74,SSW,202,8.1,8.1,52,0.00,,,0.00,VWS V14.01,2013-01-08 01:34:00,
2013-01-07 19:36:00,27.9,12.5,29.74,SSW,202,8.1,8.1,52,0.00,,,0.00,VWS V14.01,2013-01-08 01:36:00,
2013-01-07 19:38:00,27.3,11.6,29.74,SSW,202,8.1,8.1,51,0.00,,,0.00,VWS V14.01,2013-01-08 01:38:00,
2013-01-07 19:40:00,27.9,12.1,29.74,SSW,202,8.1,8.1,51,0.00,,,0.00,VWS V14.01,2013-01-08 01:40:00,
2013-01-07 19:42:00,27.5,11.8,29.74,SSW,202,8.1,8.1,51,0.00,,,0.00,VWS V14.01,2013-01-08 01:42:00,
2013-01-07 19:43:00,27.3,11.6,29.74,SSW,202,8.1,8.1,51,0.00,,,0.00,VWS V14.01,2013-01-08 01:43:00,
2013-01-07 19:44:00,27.3,11.6,29.74,SSW,202,8.1,8.1,51,0.00,,,0.00,VWS V14.01,2013-01-08 01:44:00,
2013-01-07 19:46:00,27.1,11.4,29.74,SSW,202,8.1,8.1,51,0.00,,,0.00,VWS V14.01,2013-01-08 01:46:00,
2013-01-07 19:48:00,27.3,11.6,29.74,SSW,202,8.1,8.1,51,0.00,,,0.00,VWS V14.01,2013-01-08 01:48:00,
2013-01-07 19:50:00,27.3,11.6,29.74,SSW,202,8.1,8.1,51,0.00,,,0.00,VWS V14.01,2013-01-08 01:50:00,
2013-01-07 19:52:00,27.3,11.6,29.74,SSW,202,8.1,8.1,51,0.00,,,0.00,VWS V14.01,2013-01-08 01:52:00,
2013-01-07 19:53:00,27.3,12.0,29.74,SSW,202,8.1,8.1,52,0.00,,,0.00,VWS V14.01,2013-01-08 01:53:00,
2013-01-07 19:54:00,27.3,11.6,29.74,SSW,202,8.1,8.1,51,0.00,,,0.00,VWS V14.01,2013-01-08 01:54:00,
2013-01-07 19:56:00,27.3,11.6,29.74,SSW,202,8.1,8.1,51,0.00,,,0.00,VWS V14.01,2013-01-08 01:56:00,
2013-01-07 19:58:00,27.1,11.9,29.74,SSW,202,8.1,8.1,52,0.00,,,0.00,VWS V14.01,2013-01-08 01:58:00,
2013-01-07 20:00:00,27.3,12.0,29.74,SSW,202,8.1,8.1,52,0.00,,,0.00,VWS V14.01,2013-01-08 02:00:00,
2013-01-07 20:02:00,27.3,12.0,29.74,SSW,202,8.1,8.1,52,0.00,,,0.00,VWS V14.01,2013-01-08 02:02:00,
2013-01-07 20:03:00,27.3,12.5,29.74,SSW,202,8.1,8.1,53,0.00,,,0.00,VWS V14.01,2013-01-08 02:03:00,
2013-01-07 20:04:00,27.1,11.9,29.74,SSW,202,8.1,8.1,52,0.00,,,0.00,VWS V14.01,2013-01-08 02:04:00,
2013-01-07 20:06:00,27.1,11.9,29.74,SSW,202,8.1,8.1,52,0.00,,,0.00,VWS V14.01,2013-01-08 02:06:00,
2013-01-07 20:08:00,27.5,12.6,29.74,SSW,202,8.1,8.1,53,0.00,,,0.00,VWS V14.01,2013-01-08 02:08:00,
2013-01-07 20:10:00,27.3,12.5,29.74,SSW,202,8.1,8.1,53,0.00,,,0.00,VWS V14.01,2013-01-08 02:10:00,
2013-01-07 20:12:00,27.5,12.6,29.74,SSW,202,8.1,8.1,53,0.00,,,0.00,VWS V14.01,2013-01-08 02:12:00,
2013-01-07 20:13:00,27.3,12.0,29.74,SSW,202,8.1,8.1,52,0.00,,,0.00,VWS V14.01,2013-01-08 02:13:00,
2013-01-07 20:14:00,27.5,12.6,29.74,SSW,202,8.1,8.1,53,0.00,,,0.00,VWS V14.01,2013-01-08 02:14:00,
2013-01-07 20:16:00,27.5,12.6,29.74,SSW,202,8.1,8.1,53,0.00,,,0.00,VWS V14.01,2013-01-08 02:16:00,
2013-01-07 20:18:00,27.3,12.5,29.74,SSW,202,8.1,8.1,53,0.00,,,0.00,VWS V14.01,2013-01-08 02:18:00,
2013-01-07 20:20:00,27.3,12.0,29.74,SSW,202,8.1,8.1,52,0.00,,,0.00,VWS V14.01,2013-01-08 02:20:00,
2013-01-07 20:22:00,27.3,12.0,29.74,SSW,202,8.1,8.1,52,0.00,,,0.00,VWS V14.01,2013-01-08 02:22:00,
2013-01-07 20:23:00,27.3,12.5,29.74,SSW,202,8.1,8.1,53,0.00,,,0.00,VWS V14.01,2013-01-08 02:23:00,
2013-01-07 20:24:00,27.3,12.5,29.74,SSW,202,8.1,8.1,53,0.00,,,0.00,VWS V14.01,2013-01-08 02:24:00,
2013-01-07 20:26:00,27.5,12.6,29.74,SSW,202,8.1,8.1,53,0.00,,,0.00,VWS V14.01,2013-01-08 02:26:00,
2013-01-07 20:28:00,27.1,12.3,29.74,SSW,202,8.1,8.1,53,0.00,,,0.00,VWS V14.01,2013-01-08 02:28:00,
2013-01-07 20:30:00,27.3,12.5,29.74,SSW,202,8.1,8.1,53,0.00,,,0.00,VWS V14.01,2013-01-08 02:30:00,
2013-01-07 20:32:00,27.3,12.5,29.74,SSW,202,8.1,8.1,53,0.00,,,0.00,VWS V14.01,2013-01-08 02:32:00,
2013-01-07 20:33:00,27.1,12.3,29.74,SSW,202,8.1,8.1,53,0.00,,,0.00,VWS V14.01,2013-01-08 02:33:00,
2013-01-07 20:34:00,27.1,12.3,29.74,SSW,202,8.1,8.1,53,0.00,,,0.00,VWS V14.01,2013-01-08 02:34:00,
2013-01-07 20:36:00,27.1,12.3,29.74,SSW,202,8.1,8.1,53,0.00,,,0.00,VWS V14.01,2013-01-08 02:36:00,
2013-01-07 20:38:00,27.1,12.3,29.74,SSW,202,8.1,8.1,53,0.00,,,0.00,VWS V14.01,2013-01-08 02:38:00,
2013-01-07 20:40:00,27.1,12.3,29.74,SSW,202,8.1,8.1,53,0.00,,,0.00,VWS V14.01,2013-01-08 02:40:00,
2013-01-07 20:42:00,27.0,12.1,29.74,SSW,202,8.1,8.1,53,0.00,,,0.00,VWS V14.01,2013-01-08 02:42:00,
2013-01-07 20:43:00,27.1,12.3,29.74,SSW,202,8.1,8.1,53,0.00,,,0.00,VWS V14.01,2013-01-08 02:43:00,
2013-01-07 20:44:00,27.1,12.3,29.74,SSW,202,8.1,8.1,53,0.00,,,0.00,VWS V14.01,2013-01-08 02:44:00,
2013-01-07 20:46:00,27.1,12.3,29.74,SSW,202,8.1,8.1,53,0.00,,,0.00,VWS V14.01,2013-01-08 02:46:00,
2013-01-07 20:48:00,27.0,12.1,29.74,SSW,202,8.1,8.1,53,0.00,,,0.00,VWS V14.01,2013-01-08 02:48:00,
2013-01-07 20:50:00,27.1,12.3,29.74,SSW,202,8.1,8.1,53,0.00,,,0.00,VWS V14.01,2013-01-08 02:50:00,
2013-01-07 20:52:00,27.0,12.1,29.74,SSW,202,8.1,8.1,53,0.00,,,0.00,VWS V14.01,2013-01-08 02:52:00,
2013-01-07 20:53:00,27.0,12.1,29.74,SSW,202,8.1,8.1,53,0.00,,,0.00,VWS V14.01,2013-01-08 02:53:00,
2013-01-07 20:54:00,27.0,12.1,29.74,SSW,202,8.1,8.1,53,0.00,,,0.00,VWS V14.01,2013-01-08 02:54:00,
2013-01-07 20:56:00,27.0,12.1,29.74,SSW,202,8.1,8.1,53,0.00,,,0.00,VWS V14.01,2013-01-08 02:56:00,
2013-01-07 20:58:00,26.8,12.4,29.76,SSW,202,8.1,8.1,54,0.00,,,0.00,VWS V14.01,2013-01-08 02:58:00,
2013-01-07 21:00:00,27.0,12.1,29.74,SSW,202,8.1,8.1,53,0.00,,,0.00,VWS V14.01,2013-01-08 03:00:00,
2013-01-07 21:02:00,27.0,12.1,29.74,SSW,202,8.1,8.1,53,0.00,,,0.00,VWS V14.01,2013-01-08 03:02:00,
2013-01-07 21:03:00,26.8,12.4,29.76,SSW,202,8.1,8.1,54,0.00,,,0.00,VWS V14.01,2013-01-08 03:03:00,
2013-01-07 21:04:00,27.0,12.6,29.74,SSW,202,8.1,8.1,54,0.00,,,0.00,VWS V14.01,2013-01-08 03:04:00,
2013-01-07 21:06:00,27.0,12.6,29.76,SSW,202,8.1,8.1,54,0.00,,,0.00,VWS V14.01,2013-01-08 03:06:00,
2013-01-07 21:08:00,26.8,12.4,29.76,SSW,202,8.1,8.1,54,0.00,,,0.00,VWS V14.01,2013-01-08 03:08:00,
2013-01-07 21:10:00,26.8,12.4,29.76,SSW,202,8.1,8.1,54,0.00,,,0.00,VWS V14.01,2013-01-08 03:10:00,
2013-01-07 21:12:00,27.0,12.6,29.76,SSW,202,8.1,8.1,54,0.00,,,0.00,VWS V14.01,2013-01-08 03:12:00,
2013-01-07 21:13:00,26.4,12.0,29.76,SSW,202,8.1,8.1,54,0.00,,,0.00,VWS V14.01,2013-01-08 03:13:00,
2013-01-07 21:14:00,27.0,12.6,29.76,SSW,202,8.1,8.1,54,0.00,,,0.00,VWS V14.01,2013-01-08 03:14:00,
2013-01-07 21:16:00,26.8,12.4,29.76,SSW,202,8.1,8.1,54,0.00,,,0.00,VWS V14.01,2013-01-08 03:16:00,
2013-01-07 21:18:00,26.2,11.9,29.76,SSW,202,8.1,8.1,54,0.00,,,0.00,VWS V14.01,2013-01-08 03:18:00,
2013-01-07 21:20:00,26.6,12.2,29.76,SSW,202,8.1,8.1,54,0.00,,,0.00,VWS V14.01,2013-01-08 03:20:00,
2013-01-07 21:22:00,26.4,12.0,29.76,SSW,202,8.1,8.1,54,0.00,,,0.00,VWS V14.01,2013-01-08 03:22:00,
2013-01-07 21:23:00,26.1,11.7,29.76,SSW,202,8.1,8.1,54,0.00,,,0.00,VWS V14.01,2013-01-08 03:23:00,
2013-01-07 21:24:00,26.2,11.9,29.76,SSW,202,8.1,8.1,54,0.00,,,0.00,VWS V14.01,2013-01-08 03:24:00,
2013-01-07 21:26:00,26.2,11.9,29.76,SSW,202,8.1,8.1,54,0.00,,,0.00,VWS V14.01,2013-01-08 03:26:00,
2013-01-07 21:28:00,25.7,11.4,29.76,SSW,202,8.1,8.1,54,0.00,,,0.00,VWS V14.01,2013-01-08 03:28:00,
2013-01-07 21:30:00,26.1,11.7,29.76,SSW,202,8.1,8.1,54,0.00,,,0.00,VWS V14.01,2013-01-08 03:30:00,
2013-01-07 21:32:00,26.1,11.7,29.76,SSW,202,8.1,8.1,54,0.00,,,0.00,VWS V14.01,2013-01-08 03:32:00,
2013-01-07 21:33:00,25.5,11.6,29.76,SSW,202,8.1,8.1,55,0.00,,,0.00,VWS V14.01,2013-01-08 03:33:00,
2013-01-07 21:34:00,26.1,11.7,29.76,SSW,202,8.1,8.1,54,0.00,,,0.00,VWS V14.01,2013-01-08 03:34:00,
2013-01-07 21:36:00,25.7,11.4,29.76,SSW,202,8.1,8.1,54,0.00,,,0.00,VWS V14.01,2013-01-08 03:36:00,
2013-01-07 21:38:00,25.3,11.4,29.76,SSW,202,8.1,8.1,55,0.00,,,0.00,VWS V14.01,2013-01-08 03:38:00,
2013-01-07 21:40:00,25.5,11.6,29.76,SSW,202,8.1,8.1,55,0.00,,,0.00,VWS V14.01,2013-01-08 03:40:00,
2013-01-07 21:42:00,25.5,11.6,29.76,SSW,202,8.1,8.1,55,0.00,,,0.00,VWS V14.01,2013-01-08 03:42:00,
2013-01-07 21:43:00,25.0,11.1,29.76,SSW,202,8.1,8.1,55,0.00,,,0.00,VWS V14.01,2013-01-08 03:43:00,
2013-01-07 21:44:00,25.3,11.4,29.76,SSW,202,8.1,8.1,55,0.00,,,0.00,VWS V14.01,2013-01-08 03:44:00,
2013-01-07 21:46:00,25.3,11.4,29.76,SSW,202,8.1,8.1,55,0.00,,,0.00,VWS V14.01,2013-01-08 03:46:00,
2013-01-07 21:48:00,24.8,10.9,29.76,SSW,202,8.1,8.1,55,0.00,,,0.00,VWS V14.01,2013-01-08 03:48:00,
2013-01-07 21:50:00,25.2,11.3,29.76,SSW,202,8.1,8.1,55,0.00,,,0.00,VWS V14.01,2013-01-08 03:50:00,
2013-01-07 21:52:00,24.8,10.9,29.76,SSW,202,8.1,8.1,55,0.00,,,0.00,VWS V14.01,2013-01-08 03:52:00,
2013-01-07 21:53:00,24.6,11.2,29.76,SSW,202,8.1,8.1,56,0.00,,,0.00,VWS V14.01,2013-01-08 03:53:00,
2013-01-07 21:54:00,24.8,10.9,29.76,SSW,202,8.1,8.1,55,0.00,,,0.00,VWS V14.01,2013-01-08 03:54:00,
2013-01-07 21:56:00,24.6,11.2,29.76,SSW,202,8.1,8.1,56,0.00,,,0.00,VWS V14.01,2013-01-08 03:56:00,
2013-01-07 21:58:00,24.4,11.0,29.76,SSW,202,8.1,8.1,56,0.00,,,0.00,VWS V14.01,2013-01-08 03:58:00,
2013-01-07 22:00:00,24.6,11.2,29.76,SSW,202,8.1,8.1,56,0.00,,,0.00,VWS V14.01,2013-01-08 04:00:00,
2013-01-07 22:02:00,24.6,11.2,29.76,SSW,202,8.1,8.1,56,0.00,,,0.00,VWS V14.01,2013-01-08 04:02:00,
2013-01-07 22:03:00,24.4,11.4,29.76,SSW,202,8.1,8.1,57,0.00,,,0.00,VWS V14.01,2013-01-08 04:03:00,
2013-01-07 22:04:00,24.6,11.2,29.76,SSW,202,8.1,8.1,56,0.00,,,0.00,VWS V14.01,2013-01-08 04:04:00,
2013-01-07 22:06:00,24.6,11.6,29.76,SSW,202,8.1,8.1,57,0.00,,,0.00,VWS V14.01,2013-01-08 04:06:00,
2013-01-07 22:08:00,23.9,10.9,29.76,SSW,202,8.1,8.1,57,0.00,,,0.00,VWS V14.01,2013-01-08 04:08:00,
2013-01-07 22:10:00,24.4,11.4,29.76,SSW,202,8.1,8.1,57,0.00,,,0.00,VWS V14.01,2013-01-08 04:10:00,
2013-01-07 22:12:00,24.1,11.1,29.76,SSW,202,8.1,8.1,57,0.00,,,0.00,VWS V14.01,2013-01-08 04:12:00,
2013-01-07 22:13:00,23.9,10.9,29.76,SSW,202,8.1,8.1,57,0.00,,,0.00,VWS V14.01,2013-01-08 04:13:00,
2013-01-07 22:14:00,23.9,10.9,29.76,SSW,202,8.1,8.1,57,0.00,,,0.00,VWS V14.01,2013-01-08 04:14:00,
2013-01-07 22:16:00,23.9,10.9,29.76,SSW,202,8.1,8.1,57,0.00,,,0.00,VWS V14.01,2013-01-08 04:16:00,
2013-01-07 22:18:00,23.5,10.6,29.76,SSW,202,8.1,8.1,57,0.00,,,0.00,VWS V14.01,2013-01-08 04:18:00,
2013-01-07 22:20:00,23.9,10.9,29.76,SSW,202,8.1,8.1,57,0.00,,,0.00,VWS V14.01,2013-01-08 04:20:00,
2013-01-07 22:22:00,23.7,10.7,29.76,SSW,202,8.1,8.1,57,0.00,,,0.00,VWS V14.01,2013-01-08 04:22:00,
2013-01-07 22:23:00,23.2,10.2,29.76,SSW,202,8.1,8.1,57,0.00,,,0.00,VWS V14.01,2013-01-08 04:23:00,
2013-01-07 22:24:00,23.5,10.6,29.76,SSW,202,8.1,8.1,57,0.00,,,0.00,VWS V14.01,2013-01-08 04:24:00,
2013-01-07 22:26:00,23.4,10.4,29.76,SSW,202,8.1,8.1,57,0.00,,,0.00,VWS V14.01,2013-01-08 04:26:00,
2013-01-07 22:28:00,23.2,10.6,29.76,SSW,202,8.1,8.1,58,0.00,,,0.00,VWS V14.01,2013-01-08 04:28:00,
2013-01-07 22:30:00,23.2,10.2,29.76,SSW,202,8.1,8.1,57,0.00,,,0.00,VWS V14.01,2013-01-08 04:30:00,
2013-01-07 22:32:00,23.0,10.4,29.76,SSW,202,8.1,8.1,58,0.00,,,0.00,VWS V14.01,2013-01-08 04:32:00,
2013-01-07 22:34:00,23.2,10.6,29.76,SSW,202,8.1,8.1,58,0.00,,,0.00,VWS V14.01,2013-01-08 04:34:00,
2013-01-07 22:36:00,23.2,10.6,29.76,SSW,202,8.1,8.1,58,0.00,,,0.00,VWS V14.01,2013-01-08 04:36:00,
2013-01-07 22:37:00,22.8,10.3,29.76,SSW,202,8.1,8.1,58,0.00,,,0.00,VWS V14.01,2013-01-08 04:37:00,
2013-01-07 22:38:00,23.0,10.4,29.76,SSW,202,8.1,8.1,58,0.00,,,0.00,VWS V14.01,2013-01-08 04:38:00,
2013-01-07 22:40:00,23.0,10.4,29.76,SSW,202,8.1,8.1,58,0.00,,,0.00,VWS V14.01,2013-01-08 04:40:00,
2013-01-07 22:42:00,22.8,10.6,29.74,SSW,202,8.1,8.1,59,0.00,,,0.00,VWS V14.01,2013-01-08 04:42:00,
2013-01-07 22:44:00,22.8,10.3,29.76,SSW,202,8.1,8.1,58,0.00,,,0.00,VWS V14.01,2013-01-08 04:44:00,
2013-01-07 22:46:00,22.8,10.6,29.76,SSW,202,8.1,8.1,59,0.00,,,0.00,VWS V14.01,2013-01-08 04:46:00,
2013-01-07 22:47:00,22.6,10.5,29.74,SSW,202,8.1,8.1,59,0.00,,,0.00,VWS V14.01,2013-01-08 04:47:00,
2013-01-07 22:48:00,22.8,10.3,29.76,SSW,202,8.1,8.1,58,0.00,,,0.00,VWS V14.01,2013-01-08 04:48:00,
2013-01-07 22:50:00,22.8,10.6,29.74,SSW,202,8.1,8.1,59,0.00,,,0.00,VWS V14.01,2013-01-08 04:50:00,
2013-01-07 22:52:00,22.5,10.3,29.74,SSW,202,8.1,8.1,59,0.00,,,0.00,VWS V14.01,2013-01-08 04:52:00,
2013-01-07 22:54:00,22.6,10.5,29.74,SSW,202,8.1,8.1,59,0.00,,,0.00,VWS V14.01,2013-01-08 04:54:00,
2013-01-07 22:56:00,22.6,10.5,29.74,SSW,202,8.1,8.1,59,0.00,,,0.00,VWS V14.01,2013-01-08 04:56:00,
2013-01-07 22:57:00,22.5,10.7,29.76,SSW,202,8.1,8.1,60,0.00,,,0.00,VWS V14.01,2013-01-08 04:57:00,
2013-01-07 22:58:00,22.8,10.6,29.74,SSW,202,8.1,8.1,59,0.00,,,0.00,VWS V14.01,2013-01-08 04:58:00,
2013-01-07 23:00:00,22.5,10.7,29.76,SSW,202,8.1,8.1,60,0.00,,,0.00,VWS V14.01,2013-01-08 05:00:00,
2013-01-07 23:02:00,22.5,10.3,29.74,SSW,202,8.1,8.1,59,0.00,,,0.00,VWS V14.01,2013-01-08 05:02:00,
2013-01-07 23:03:00,22.5,10.7,29.76,SSW,202,8.1,8.1,60,0.00,,,0.00,VWS V14.01,2013-01-08 05:03:00,
2013-01-07 23:04:00,22.5,10.3,29.74,SSW,202,8.1,8.1,59,0.00,,,0.00,VWS V14.01,2013-01-08 05:04:00,
2013-01-07 23:06:00,22.5,10.3,29.76,SSW,202,8.1,8.1,59,0.00,,,0.00,VWS V14.01,2013-01-08 05:06:00,
2013-01-07 23:08:00,22.6,11.6,29.76,SSW,202,8.1,8.1,62,0.00,,,0.00,VWS V14.01,2013-01-08 05:08:00,
2013-01-07 23:10:00,22.5,10.7,29.76,SSW,202,8.1,8.1,60,0.00,,,0.00,VWS V14.01,2013-01-08 05:10:00,
2013-01-07 23:12:00,22.5,10.7,29.76,SSW,202,8.1,8.1,60,0.00,,,0.00,VWS V14.01,2013-01-08 05:12:00,
2013-01-07 23:13:00,22.3,10.9,29.76,SSW,202,8.1,8.1,61,0.00,,,0.00,VWS V14.01,2013-01-08 05:13:00,
2013-01-07 23:14:00,22.5,11.1,29.76,SSW,202,8.1,8.1,61,0.00,,,0.00,VWS V14.01,2013-01-08 05:14:00,
2013-01-07 23:16:00,22.5,11.4,29.76,SSW,202,8.1,8.1,62,0.00,,,0.00,VWS V14.01,2013-01-08 05:16:00,
2013-01-07 23:18:00,21.7,10.0,29.76,SSW,202,8.1,8.1,60,0.00,,,0.00,VWS V14.01,2013-01-08 05:18:00,
2013-01-07 23:20:00,22.3,10.9,29.76,SSW,202,8.1,8.1,61,0.00,,,0.00,VWS V14.01,2013-01-08 05:20:00,
2013-01-07 23:22:00,21.9,10.6,29.76,SSW,202,8.1,8.1,61,0.00,,,0.00,VWS V14.01,2013-01-08 05:22:00,
2013-01-07 23:23:00,21.4,10.0,29.76,SSW,202,8.1,8.1,61,0.00,,,0.00,VWS V14.01,2013-01-08 05:23:00,
2013-01-07 23:24:00,21.9,10.6,29.76,SSW,202,8.1,8.1,61,0.00,,,0.00,VWS V14.01,2013-01-08 05:24:00,
2013-01-07 23:26:00,21.6,9.8,29.76,SSW,202,8.1,8.1,60,0.00,,,0.00,VWS V14.01,2013-01-08 05:26:00,
2013-01-07 23:28:00,21.0,9.7,29.76,SSW,202,8.1,8.1,61,0.00,,,0.00,VWS V14.01,2013-01-08 05:28:00,
2013-01-07 23:30:00,21.4,10.0,29.76,SSW,202,8.1,8.1,61,0.00,,,0.00,VWS V14.01,2013-01-08 05:30:00,
2013-01-07 23:32:00,21.4,10.0,29.76,SSW,202,8.1,8.1,61,0.00,,,0.00,VWS V14.01,2013-01-08 05:32:00,
2013-01-07 23:33:00,20.8,9.5,29.76,SSW,202,8.1,8.1,61,0.00,,,0.00,VWS V14.01,2013-01-08 05:33:00,
2013-01-07 23:34:00,21.2,9.9,29.76,SSW,202,8.1,8.1,61,0.00,,,0.00,VWS V14.01,2013-01-08 05:34:00,
2013-01-07 23:36:00,21.0,9.7,29.76,SSW,202,8.1,8.1,61,0.00,,,0.00,VWS V14.01,2013-01-08 05:36:00,
2013-01-07 23:38:00,20.7,9.7,29.76,SSW,202,8.1,8.1,62,0.00,,,0.00,VWS V14.01,2013-01-08 05:38:00,
2013-01-07 23:40:00,20.8,9.5,29.76,SSW,202,8.1,8.1,61,0.00,,,0.00,VWS V14.01,2013-01-08 05:40:00,
2013-01-07 23:42:00,20.8,9.9,29.76,SSW,202,8.1,8.1,62,0.00,,,0.00,VWS V14.01,2013-01-08 05:42:00,
2013-01-07 23:43:00,20.5,9.6,29.76,SSW,202,8.1,8.1,62,0.00,,,0.00,VWS V14.01,2013-01-08 05:43:00,
2013-01-07 23:44:00,20.7,9.7,29.76,SSW,202,8.1,8.1,62,0.00,,,0.00,VWS V14.01,2013-01-08 05:44:00,
2013-01-07 23:46:00,20.7,9.7,29.76,SSW,202,8.1,8.1,62,0.00,,,0.00,VWS V14.01,2013-01-08 05:46:00,
2013-01-07 23:48:00,20.3,9.7,29.76,SSW,202,8.1,8.1,63,0.00,,,0.00,VWS V14.01,2013-01-08 05:48:00,
2013-01-07 23:50:00,20.5,9.6,29.76,SSW,202,8.1,8.1,62,0.00,,,0.00,VWS V14.01,2013-01-08 05:50:00,
2013-01-07 23:52:00,20.3,9.4,29.76,SSW,202,8.1,8.1,62,0.00,,,0.00,VWS V14.01,2013-01-08 05:52:00,
2013-01-07 23:53:00,20.3,10.1,29.76,SSW,202,8.1,8.1,64,0.00,,,0.00,VWS V14.01,2013-01-08 05:53:00,
2013-01-07 23:54:00,20.3,9.4,29.76,SSW,202,8.1,8.1,62,0.00,,,0.00,VWS V14.01,2013-01-08 05:54:00,
2013-01-07 23:56:00,20.5,9.9,29.76,SSW,202,8.1,8.1,63,0.00,,,0.00,VWS V14.01,2013-01-08 05:56:00,
2013-01-07 23:58:00,19.9,9.7,29.76,SSW,202,8.1,8.1,64,0.00,,,0.00,VWS V14.01,2013-01-08 05:58:00,